<?xml version="1.0" encoding="UTF-8" standalone="no" ?>
<gpx xmlns="http://www.topografix.com/GPX/1/1" xmlns:xsi="http://www.w3.org/2001/XMLSchema-instance" xsi:schemaLocation="http://www.topografix.com/GPX/1/1 http://www.topografix.com/GPX/1/1/gpx.xsd" version="1.1" creator="VisuGPX - https://www.visugpx.com">
  <metadata>
    <name>Barlet Couloir en S</name>
    <desc><![CDATA[http://www.skitour.fr/sorties/pic-de-barlet,46958.html#sortie]]></desc>
  </metadata>
  <trk>
    <name><![CDATA[ACTIVE LOG- 21 FEV 2013 14-49]]></name>
    <trkseg>
      <trkpt lat="45.2117" lon="5.98427">
        <ele>1777.61</ele>
        <time>2013-02-21T13:49:35Z</time>
      </trkpt>
      <trkpt lat="45.21172" lon="5.98436">
        <ele>1777.61</ele>
        <time>2013-02-21T13:49:36Z</time>
      </trkpt>
      <trkpt lat="45.21173" lon="5.98437">
        <ele>1859.81</ele>
        <time>2013-02-21T13:49:37Z</time>
      </trkpt>
      <trkpt lat="45.21173" lon="5.98437">
        <ele>1859.81</ele>
        <time>2013-02-21T13:49:38Z</time>
      </trkpt>
      <trkpt lat="45.2117" lon="5.98432">
        <ele>1854.04</ele>
        <time>2013-02-21T13:49:40Z</time>
      </trkpt>
      <trkpt lat="45.2117" lon="5.98429">
        <ele>1850.68</ele>
        <time>2013-02-21T13:49:41Z</time>
      </trkpt>
      <trkpt lat="45.21169" lon="5.98427">
        <ele>1846.35</ele>
        <time>2013-02-21T13:49:43Z</time>
      </trkpt>
      <trkpt lat="45.21168" lon="5.98427">
        <ele>1842.02</ele>
        <time>2013-02-21T13:49:44Z</time>
      </trkpt>
      <trkpt lat="45.2116" lon="5.9842">
        <ele>1839.62</ele>
        <time>2013-02-21T13:49:46Z</time>
      </trkpt>
      <trkpt lat="45.21161" lon="5.98423">
        <ele>1832.89</ele>
        <time>2013-02-21T13:49:49Z</time>
      </trkpt>
      <trkpt lat="45.21162" lon="5.98422">
        <ele>1829.53</ele>
        <time>2013-02-21T13:49:51Z</time>
      </trkpt>
      <trkpt lat="45.21163" lon="5.9842">
        <ele>1826.16</ele>
        <time>2013-02-21T13:49:53Z</time>
      </trkpt>
      <trkpt lat="45.21163" lon="5.98419">
        <ele>1822.8</ele>
        <time>2013-02-21T13:49:55Z</time>
      </trkpt>
      <trkpt lat="45.21163" lon="5.98419">
        <ele>1821.35</ele>
        <time>2013-02-21T13:49:57Z</time>
      </trkpt>
      <trkpt lat="45.21162" lon="5.98418">
        <ele>1808.38</ele>
        <time>2013-02-21T13:50:05Z</time>
      </trkpt>
      <trkpt lat="45.21162" lon="5.98419">
        <ele>1807.42</ele>
        <time>2013-02-21T13:50:07Z</time>
      </trkpt>
      <trkpt lat="45.21164" lon="5.98421">
        <ele>1803.57</ele>
        <time>2013-02-21T13:50:10Z</time>
      </trkpt>
      <trkpt lat="45.21164" lon="5.98421">
        <ele>1800.21</ele>
        <time>2013-02-21T13:50:14Z</time>
      </trkpt>
      <trkpt lat="45.21164" lon="5.98421">
        <ele>1796.36</ele>
        <time>2013-02-21T13:50:19Z</time>
      </trkpt>
      <trkpt lat="45.21164" lon="5.98421">
        <ele>1793.48</ele>
        <time>2013-02-21T13:50:25Z</time>
      </trkpt>
      <trkpt lat="45.21164" lon="5.98421">
        <ele>1789.63</ele>
        <time>2013-02-21T13:50:33Z</time>
      </trkpt>
      <trkpt lat="45.21164" lon="5.98421">
        <ele>1788.19</ele>
        <time>2013-02-21T13:50:37Z</time>
      </trkpt>
      <trkpt lat="45.21164" lon="5.98422">
        <ele>1785.31</ele>
        <time>2013-02-21T13:50:46Z</time>
      </trkpt>
      <trkpt lat="45.21165" lon="5.98421">
        <ele>1781.94</ele>
        <time>2013-02-21T13:51:00Z</time>
      </trkpt>
      <trkpt lat="45.21166" lon="5.98421">
        <ele>1779.06</ele>
        <time>2013-02-21T13:51:26Z</time>
      </trkpt>
      <trkpt lat="45.21166" lon="5.98421">
        <ele>1779.06</ele>
        <time>2013-02-21T13:51:53Z</time>
      </trkpt>
      <trkpt lat="45.21166" lon="5.98418">
        <ele>1778.1</ele>
        <time>2013-02-21T13:52:31Z</time>
      </trkpt>
      <trkpt lat="45.21173" lon="5.984">
        <ele>1775.69</ele>
        <time>2013-02-21T13:52:40Z</time>
      </trkpt>
      <trkpt lat="45.21179" lon="5.9838">
        <ele>1772.81</ele>
        <time>2013-02-21T13:52:48Z</time>
      </trkpt>
      <trkpt lat="45.21182" lon="5.98372">
        <ele>1771.85</ele>
        <time>2013-02-21T13:52:50Z</time>
      </trkpt>
      <trkpt lat="45.21186" lon="5.98363">
        <ele>1769.44</ele>
        <time>2013-02-21T13:52:53Z</time>
      </trkpt>
      <trkpt lat="45.21188" lon="5.98358">
        <ele>1767.04</ele>
        <time>2013-02-21T13:52:57Z</time>
      </trkpt>
      <trkpt lat="45.21204" lon="5.98324">
        <ele>1767.52</ele>
        <time>2013-02-21T13:54:19Z</time>
      </trkpt>
      <trkpt lat="45.21209" lon="5.98312">
        <ele>1766.08</ele>
        <time>2013-02-21T13:54:27Z</time>
      </trkpt>
      <trkpt lat="45.21222" lon="5.98292">
        <ele>1762.23</ele>
        <time>2013-02-21T13:54:37Z</time>
      </trkpt>
      <trkpt lat="45.21234" lon="5.98271">
        <ele>1758.87</ele>
        <time>2013-02-21T13:54:44Z</time>
      </trkpt>
      <trkpt lat="45.21245" lon="5.98256">
        <ele>1755.02</ele>
        <time>2013-02-21T13:54:48Z</time>
      </trkpt>
      <trkpt lat="45.21246" lon="5.98253">
        <ele>1755.02</ele>
        <time>2013-02-21T13:54:49Z</time>
      </trkpt>
      <trkpt lat="45.21247" lon="5.98249">
        <ele>1752.62</ele>
        <time>2013-02-21T13:54:53Z</time>
      </trkpt>
      <trkpt lat="45.21251" lon="5.98239">
        <ele>1754.06</ele>
        <time>2013-02-21T13:55:12Z</time>
      </trkpt>
      <trkpt lat="45.21254" lon="5.98228">
        <ele>1752.14</ele>
        <time>2013-02-21T13:55:21Z</time>
      </trkpt>
      <trkpt lat="45.21257" lon="5.98218">
        <ele>1753.1</ele>
        <time>2013-02-21T13:55:34Z</time>
      </trkpt>
      <trkpt lat="45.21259" lon="5.98215">
        <ele>1753.58</ele>
        <time>2013-02-21T13:55:39Z</time>
      </trkpt>
      <trkpt lat="45.21257" lon="5.98215">
        <ele>1754.54</ele>
        <time>2013-02-21T13:55:49Z</time>
      </trkpt>
      <trkpt lat="45.21251" lon="5.98217">
        <ele>1755.99</ele>
        <time>2013-02-21T13:55:59Z</time>
      </trkpt>
      <trkpt lat="45.21249" lon="5.98216">
        <ele>1757.91</ele>
        <time>2013-02-21T13:56:12Z</time>
      </trkpt>
      <trkpt lat="45.21251" lon="5.98209">
        <ele>1759.35</ele>
        <time>2013-02-21T13:56:25Z</time>
      </trkpt>
      <trkpt lat="45.21255" lon="5.98201">
        <ele>1759.83</ele>
        <time>2013-02-21T13:56:37Z</time>
      </trkpt>
      <trkpt lat="45.21259" lon="5.98191">
        <ele>1761.75</ele>
        <time>2013-02-21T13:56:53Z</time>
      </trkpt>
      <trkpt lat="45.21259" lon="5.98184">
        <ele>1763.68</ele>
        <time>2013-02-21T13:57:06Z</time>
      </trkpt>
      <trkpt lat="45.2126" lon="5.98182">
        <ele>1763.68</ele>
        <time>2013-02-21T13:57:40Z</time>
      </trkpt>
      <trkpt lat="45.21259" lon="5.98174">
        <ele>1765.12</ele>
        <time>2013-02-21T13:57:52Z</time>
      </trkpt>
      <trkpt lat="45.21259" lon="5.98167">
        <ele>1767.04</ele>
        <time>2013-02-21T13:58:04Z</time>
      </trkpt>
      <trkpt lat="45.21258" lon="5.9816">
        <ele>1768.96</ele>
        <time>2013-02-21T13:58:15Z</time>
      </trkpt>
      <trkpt lat="45.21259" lon="5.98152">
        <ele>1770.89</ele>
        <time>2013-02-21T13:58:28Z</time>
      </trkpt>
      <trkpt lat="45.21259" lon="5.98143">
        <ele>1772.33</ele>
        <time>2013-02-21T13:58:40Z</time>
      </trkpt>
      <trkpt lat="45.21257" lon="5.9813">
        <ele>1773.77</ele>
        <time>2013-02-21T13:58:59Z</time>
      </trkpt>
      <trkpt lat="45.21257" lon="5.98127">
        <ele>1774.73</ele>
        <time>2013-02-21T13:59:17Z</time>
      </trkpt>
      <trkpt lat="45.21255" lon="5.98117">
        <ele>1776.65</ele>
        <time>2013-02-21T13:59:31Z</time>
      </trkpt>
      <trkpt lat="45.21253" lon="5.98111">
        <ele>1778.1</ele>
        <time>2013-02-21T13:59:41Z</time>
      </trkpt>
      <trkpt lat="45.21252" lon="5.98102">
        <ele>1780.02</ele>
        <time>2013-02-21T13:59:55Z</time>
      </trkpt>
      <trkpt lat="45.21249" lon="5.98094">
        <ele>1781.46</ele>
        <time>2013-02-21T14:00:09Z</time>
      </trkpt>
      <trkpt lat="45.21246" lon="5.98087">
        <ele>1782.9</ele>
        <time>2013-02-21T14:00:20Z</time>
      </trkpt>
      <trkpt lat="45.21245" lon="5.98082">
        <ele>1784.82</ele>
        <time>2013-02-21T14:00:39Z</time>
      </trkpt>
      <trkpt lat="45.21243" lon="5.98074">
        <ele>1786.27</ele>
        <time>2013-02-21T14:00:50Z</time>
      </trkpt>
      <trkpt lat="45.2124" lon="5.98065">
        <ele>1788.67</ele>
        <time>2013-02-21T14:01:05Z</time>
      </trkpt>
      <trkpt lat="45.21238" lon="5.98059">
        <ele>1790.11</ele>
        <time>2013-02-21T14:01:16Z</time>
      </trkpt>
      <trkpt lat="45.21236" lon="5.98052">
        <ele>1792.52</ele>
        <time>2013-02-21T14:01:33Z</time>
      </trkpt>
      <trkpt lat="45.21235" lon="5.98054">
        <ele>1793.48</ele>
        <time>2013-02-21T14:02:23Z</time>
      </trkpt>
      <trkpt lat="45.21231" lon="5.98062">
        <ele>1795.4</ele>
        <time>2013-02-21T14:02:38Z</time>
      </trkpt>
      <trkpt lat="45.21229" lon="5.9807">
        <ele>1796.36</ele>
        <time>2013-02-21T14:02:50Z</time>
      </trkpt>
      <trkpt lat="45.21228" lon="5.98077">
        <ele>1798.28</ele>
        <time>2013-02-21T14:03:01Z</time>
      </trkpt>
      <trkpt lat="45.21226" lon="5.98084">
        <ele>1799.73</ele>
        <time>2013-02-21T14:03:10Z</time>
      </trkpt>
      <trkpt lat="45.21224" lon="5.98091">
        <ele>1801.65</ele>
        <time>2013-02-21T14:03:22Z</time>
      </trkpt>
      <trkpt lat="45.21223" lon="5.98097">
        <ele>1803.09</ele>
        <time>2013-02-21T14:03:36Z</time>
      </trkpt>
      <trkpt lat="45.21222" lon="5.98103">
        <ele>1805.01</ele>
        <time>2013-02-21T14:03:48Z</time>
      </trkpt>
      <trkpt lat="45.2122" lon="5.98109">
        <ele>1806.45</ele>
        <time>2013-02-21T14:03:59Z</time>
      </trkpt>
      <trkpt lat="45.21218" lon="5.98116">
        <ele>1808.38</ele>
        <time>2013-02-21T14:04:12Z</time>
      </trkpt>
      <trkpt lat="45.21216" lon="5.98124">
        <ele>1810.3</ele>
        <time>2013-02-21T14:04:28Z</time>
      </trkpt>
      <trkpt lat="45.21213" lon="5.98131">
        <ele>1812.7</ele>
        <time>2013-02-21T14:04:43Z</time>
      </trkpt>
      <trkpt lat="45.21211" lon="5.98133">
        <ele>1813.66</ele>
        <time>2013-02-21T14:04:56Z</time>
      </trkpt>
      <trkpt lat="45.2121" lon="5.98127">
        <ele>1815.59</ele>
        <time>2013-02-21T14:05:09Z</time>
      </trkpt>
      <trkpt lat="45.2121" lon="5.98123">
        <ele>1816.55</ele>
        <time>2013-02-21T14:05:22Z</time>
      </trkpt>
      <trkpt lat="45.21207" lon="5.98117">
        <ele>1817.99</ele>
        <time>2013-02-21T14:05:36Z</time>
      </trkpt>
      <trkpt lat="45.21205" lon="5.9811">
        <ele>1819.91</ele>
        <time>2013-02-21T14:05:50Z</time>
      </trkpt>
      <trkpt lat="45.21205" lon="5.98107">
        <ele>1820.39</ele>
        <time>2013-02-21T14:06:03Z</time>
      </trkpt>
      <trkpt lat="45.21204" lon="5.98114">
        <ele>1821.84</ele>
        <time>2013-02-21T14:06:16Z</time>
      </trkpt>
      <trkpt lat="45.21202" lon="5.98122">
        <ele>1822.8</ele>
        <time>2013-02-21T14:06:29Z</time>
      </trkpt>
      <trkpt lat="45.212" lon="5.98128">
        <ele>1824.24</ele>
        <time>2013-02-21T14:06:40Z</time>
      </trkpt>
      <trkpt lat="45.21197" lon="5.98134">
        <ele>1826.16</ele>
        <time>2013-02-21T14:06:52Z</time>
      </trkpt>
      <trkpt lat="45.21194" lon="5.98137">
        <ele>1826.16</ele>
        <time>2013-02-21T14:07:02Z</time>
      </trkpt>
      <trkpt lat="45.21189" lon="5.98141">
        <ele>1827.6</ele>
        <time>2013-02-21T14:07:14Z</time>
      </trkpt>
      <trkpt lat="45.21185" lon="5.98146">
        <ele>1829.05</ele>
        <time>2013-02-21T14:07:26Z</time>
      </trkpt>
      <trkpt lat="45.21183" lon="5.9815">
        <ele>1830.01</ele>
        <time>2013-02-21T14:07:36Z</time>
      </trkpt>
      <trkpt lat="45.21182" lon="5.98146">
        <ele>1830.97</ele>
        <time>2013-02-21T14:07:48Z</time>
      </trkpt>
      <trkpt lat="45.21183" lon="5.9814">
        <ele>1831.93</ele>
        <time>2013-02-21T14:08:00Z</time>
      </trkpt>
      <trkpt lat="45.21185" lon="5.98132">
        <ele>1832.89</ele>
        <time>2013-02-21T14:08:14Z</time>
      </trkpt>
      <trkpt lat="45.21186" lon="5.98125">
        <ele>1834.33</ele>
        <time>2013-02-21T14:08:27Z</time>
      </trkpt>
      <trkpt lat="45.21186" lon="5.98117">
        <ele>1836.26</ele>
        <time>2013-02-21T14:08:40Z</time>
      </trkpt>
      <trkpt lat="45.21186" lon="5.98117">
        <ele>1836.26</ele>
        <time>2013-02-21T14:08:41Z</time>
      </trkpt>
      <trkpt lat="45.21183" lon="5.98113">
        <ele>1837.22</ele>
        <time>2013-02-21T14:08:51Z</time>
      </trkpt>
      <trkpt lat="45.21183" lon="5.9811">
        <ele>1838.18</ele>
        <time>2013-02-21T14:09:04Z</time>
      </trkpt>
      <trkpt lat="45.21181" lon="5.98107">
        <ele>1838.66</ele>
        <time>2013-02-21T14:09:16Z</time>
      </trkpt>
      <trkpt lat="45.21181" lon="5.98112">
        <ele>1839.62</ele>
        <time>2013-02-21T14:09:30Z</time>
      </trkpt>
      <trkpt lat="45.21181" lon="5.98115">
        <ele>1840.58</ele>
        <time>2013-02-21T14:09:41Z</time>
      </trkpt>
      <trkpt lat="45.2118" lon="5.98116">
        <ele>1841.06</ele>
        <time>2013-02-21T14:10:28Z</time>
      </trkpt>
      <trkpt lat="45.21179" lon="5.9812">
        <ele>1842.02</ele>
        <time>2013-02-21T14:10:38Z</time>
      </trkpt>
      <trkpt lat="45.21174" lon="5.98127">
        <ele>1843.95</ele>
        <time>2013-02-21T14:10:49Z</time>
      </trkpt>
      <trkpt lat="45.21172" lon="5.98131">
        <ele>1844.91</ele>
        <time>2013-02-21T14:11:00Z</time>
      </trkpt>
      <trkpt lat="45.21172" lon="5.98131">
        <ele>1844.91</ele>
        <time>2013-02-21T14:11:26Z</time>
      </trkpt>
      <trkpt lat="45.21173" lon="5.98131">
        <ele>1845.39</ele>
        <time>2013-02-21T14:11:47Z</time>
      </trkpt>
      <trkpt lat="45.2117" lon="5.98136">
        <ele>1846.35</ele>
        <time>2013-02-21T14:11:58Z</time>
      </trkpt>
      <trkpt lat="45.21168" lon="5.98137">
        <ele>1847.31</ele>
        <time>2013-02-21T14:12:13Z</time>
      </trkpt>
      <trkpt lat="45.21168" lon="5.98133">
        <ele>1848.75</ele>
        <time>2013-02-21T14:12:27Z</time>
      </trkpt>
      <trkpt lat="45.21168" lon="5.98128">
        <ele>1849.71</ele>
        <time>2013-02-21T14:12:35Z</time>
      </trkpt>
      <trkpt lat="45.21167" lon="5.98124">
        <ele>1851.16</ele>
        <time>2013-02-21T14:12:45Z</time>
      </trkpt>
      <trkpt lat="45.21166" lon="5.9812">
        <ele>1853.08</ele>
        <time>2013-02-21T14:12:59Z</time>
      </trkpt>
      <trkpt lat="45.21167" lon="5.98119">
        <ele>1853.08</ele>
        <time>2013-02-21T14:13:25Z</time>
      </trkpt>
      <trkpt lat="45.21164" lon="5.98123">
        <ele>1854.04</ele>
        <time>2013-02-21T14:13:35Z</time>
      </trkpt>
      <trkpt lat="45.21163" lon="5.98124">
        <ele>1855.48</ele>
        <time>2013-02-21T14:13:48Z</time>
      </trkpt>
      <trkpt lat="45.21161" lon="5.98132">
        <ele>1856.92</ele>
        <time>2013-02-21T14:14:25Z</time>
      </trkpt>
      <trkpt lat="45.21161" lon="5.98132">
        <ele>1856.92</ele>
        <time>2013-02-21T14:14:27Z</time>
      </trkpt>
      <trkpt lat="45.21159" lon="5.9813">
        <ele>1857.89</ele>
        <time>2013-02-21T14:14:39Z</time>
      </trkpt>
      <trkpt lat="45.21158" lon="5.98123">
        <ele>1859.33</ele>
        <time>2013-02-21T14:14:51Z</time>
      </trkpt>
      <trkpt lat="45.21156" lon="5.98118">
        <ele>1860.29</ele>
        <time>2013-02-21T14:15:00Z</time>
      </trkpt>
      <trkpt lat="45.21157" lon="5.98115">
        <ele>1861.25</ele>
        <time>2013-02-21T14:15:13Z</time>
      </trkpt>
      <trkpt lat="45.21157" lon="5.98121">
        <ele>1862.21</ele>
        <time>2013-02-21T14:15:29Z</time>
      </trkpt>
      <trkpt lat="45.21155" lon="5.98127">
        <ele>1864.13</ele>
        <time>2013-02-21T14:15:43Z</time>
      </trkpt>
      <trkpt lat="45.21155" lon="5.98124">
        <ele>1864.61</ele>
        <time>2013-02-21T14:15:58Z</time>
      </trkpt>
      <trkpt lat="45.21151" lon="5.98118">
        <ele>1866.06</ele>
        <time>2013-02-21T14:16:13Z</time>
      </trkpt>
      <trkpt lat="45.21152" lon="5.9811">
        <ele>1867.98</ele>
        <time>2013-02-21T14:16:29Z</time>
      </trkpt>
      <trkpt lat="45.21151" lon="5.98112">
        <ele>1868.94</ele>
        <time>2013-02-21T14:16:43Z</time>
      </trkpt>
      <trkpt lat="45.21148" lon="5.98118">
        <ele>1870.38</ele>
        <time>2013-02-21T14:16:54Z</time>
      </trkpt>
      <trkpt lat="45.21147" lon="5.98124">
        <ele>1871.34</ele>
        <time>2013-02-21T14:17:04Z</time>
      </trkpt>
      <trkpt lat="45.21147" lon="5.98127">
        <ele>1872.79</ele>
        <time>2013-02-21T14:17:16Z</time>
      </trkpt>
      <trkpt lat="45.21147" lon="5.98132">
        <ele>1873.27</ele>
        <time>2013-02-21T14:17:31Z</time>
      </trkpt>
      <trkpt lat="45.21148" lon="5.98132">
        <ele>1874.23</ele>
        <time>2013-02-21T14:17:43Z</time>
      </trkpt>
      <trkpt lat="45.21142" lon="5.98128">
        <ele>1876.15</ele>
        <time>2013-02-21T14:18:08Z</time>
      </trkpt>
      <trkpt lat="45.21142" lon="5.98132">
        <ele>1877.11</ele>
        <time>2013-02-21T14:18:37Z</time>
      </trkpt>
      <trkpt lat="45.21142" lon="5.98138">
        <ele>1878.55</ele>
        <time>2013-02-21T14:18:50Z</time>
      </trkpt>
      <trkpt lat="45.21141" lon="5.98138">
        <ele>1879.03</ele>
        <time>2013-02-21T14:19:06Z</time>
      </trkpt>
      <trkpt lat="45.21138" lon="5.98133">
        <ele>1880</ele>
        <time>2013-02-21T14:19:26Z</time>
      </trkpt>
      <trkpt lat="45.21138" lon="5.98132">
        <ele>1880.96</ele>
        <time>2013-02-21T14:19:40Z</time>
      </trkpt>
      <trkpt lat="45.21141" lon="5.98129">
        <ele>1880</ele>
        <time>2013-02-21T14:19:49Z</time>
      </trkpt>
      <trkpt lat="45.21145" lon="5.98115">
        <ele>1877.11</ele>
        <time>2013-02-21T14:19:53Z</time>
      </trkpt>
      <trkpt lat="45.21153" lon="5.98121">
        <ele>1873.27</ele>
        <time>2013-02-21T14:19:56Z</time>
      </trkpt>
      <trkpt lat="45.21155" lon="5.98122">
        <ele>1871.34</ele>
        <time>2013-02-21T14:19:57Z</time>
      </trkpt>
      <trkpt lat="45.2116" lon="5.98118">
        <ele>1865.58</ele>
        <time>2013-02-21T14:20:00Z</time>
      </trkpt>
      <trkpt lat="45.21167" lon="5.98122">
        <ele>1861.25</ele>
        <time>2013-02-21T14:20:03Z</time>
      </trkpt>
      <trkpt lat="45.21167" lon="5.98125">
        <ele>1860.29</ele>
        <time>2013-02-21T14:20:05Z</time>
      </trkpt>
      <trkpt lat="45.21168" lon="5.98129">
        <ele>1857.89</ele>
        <time>2013-02-21T14:20:08Z</time>
      </trkpt>
      <trkpt lat="45.21176" lon="5.98119">
        <ele>1854.04</ele>
        <time>2013-02-21T14:20:12Z</time>
      </trkpt>
      <trkpt lat="45.21177" lon="5.98119">
        <ele>1852.6</ele>
        <time>2013-02-21T14:20:13Z</time>
      </trkpt>
      <trkpt lat="45.21179" lon="5.98129">
        <ele>1849.71</ele>
        <time>2013-02-21T14:20:16Z</time>
      </trkpt>
      <trkpt lat="45.2118" lon="5.98134">
        <ele>1846.35</ele>
        <time>2013-02-21T14:20:19Z</time>
      </trkpt>
      <trkpt lat="45.2118" lon="5.98134">
        <ele>1844.91</ele>
        <time>2013-02-21T14:20:21Z</time>
      </trkpt>
      <trkpt lat="45.21192" lon="5.98125">
        <ele>1840.58</ele>
        <time>2013-02-21T14:20:26Z</time>
      </trkpt>
      <trkpt lat="45.21195" lon="5.98137">
        <ele>1834.33</ele>
        <time>2013-02-21T14:20:30Z</time>
      </trkpt>
      <trkpt lat="45.21194" lon="5.98141">
        <ele>1834.81</ele>
        <time>2013-02-21T14:20:31Z</time>
      </trkpt>
      <trkpt lat="45.21193" lon="5.98149">
        <ele>1830.97</ele>
        <time>2013-02-21T14:20:34Z</time>
      </trkpt>
      <trkpt lat="45.21194" lon="5.9815">
        <ele>1830.97</ele>
        <time>2013-02-21T14:20:35Z</time>
      </trkpt>
      <trkpt lat="45.21203" lon="5.98145">
        <ele>1827.6</ele>
        <time>2013-02-21T14:20:38Z</time>
      </trkpt>
      <trkpt lat="45.21207" lon="5.98153">
        <ele>1823.28</ele>
        <time>2013-02-21T14:20:41Z</time>
      </trkpt>
      <trkpt lat="45.21207" lon="5.98158">
        <ele>1821.35</ele>
        <time>2013-02-21T14:20:43Z</time>
      </trkpt>
      <trkpt lat="45.21208" lon="5.98161">
        <ele>1817.99</ele>
        <time>2013-02-21T14:20:46Z</time>
      </trkpt>
      <trkpt lat="45.21208" lon="5.9816">
        <ele>1817.51</ele>
        <time>2013-02-21T14:20:47Z</time>
      </trkpt>
      <trkpt lat="45.21218" lon="5.98155">
        <ele>1813.18</ele>
        <time>2013-02-21T14:20:51Z</time>
      </trkpt>
      <trkpt lat="45.21219" lon="5.98154">
        <ele>1811.74</ele>
        <time>2013-02-21T14:20:52Z</time>
      </trkpt>
      <trkpt lat="45.21221" lon="5.98155">
        <ele>1810.78</ele>
        <time>2013-02-21T14:20:54Z</time>
      </trkpt>
      <trkpt lat="45.21216" lon="5.98174">
        <ele>1805.97</ele>
        <time>2013-02-21T14:20:58Z</time>
      </trkpt>
      <trkpt lat="45.21216" lon="5.98179">
        <ele>1803.57</ele>
        <time>2013-02-21T14:21:00Z</time>
      </trkpt>
      <trkpt lat="45.21229" lon="5.98174">
        <ele>1800.21</ele>
        <time>2013-02-21T14:21:04Z</time>
      </trkpt>
      <trkpt lat="45.21235" lon="5.98174">
        <ele>1796.84</ele>
        <time>2013-02-21T14:21:07Z</time>
      </trkpt>
      <trkpt lat="45.21236" lon="5.98185">
        <ele>1792.03</ele>
        <time>2013-02-21T14:21:10Z</time>
      </trkpt>
      <trkpt lat="45.21238" lon="5.98188">
        <ele>1790.59</ele>
        <time>2013-02-21T14:21:11Z</time>
      </trkpt>
      <trkpt lat="45.21248" lon="5.98182">
        <ele>1785.31</ele>
        <time>2013-02-21T14:21:14Z</time>
      </trkpt>
      <trkpt lat="45.21249" lon="5.98181">
        <ele>1785.31</ele>
        <time>2013-02-21T14:21:15Z</time>
      </trkpt>
      <trkpt lat="45.21251" lon="5.98188">
        <ele>1780.5</ele>
        <time>2013-02-21T14:21:18Z</time>
      </trkpt>
      <trkpt lat="45.21247" lon="5.98192">
        <ele>1776.65</ele>
        <time>2013-02-21T14:21:21Z</time>
      </trkpt>
      <trkpt lat="45.21245" lon="5.98198">
        <ele>1775.21</ele>
        <time>2013-02-21T14:21:26Z</time>
      </trkpt>
      <trkpt lat="45.21254" lon="5.98199">
        <ele>1773.29</ele>
        <time>2013-02-21T14:21:29Z</time>
      </trkpt>
      <trkpt lat="45.21257" lon="5.98208">
        <ele>1768</ele>
        <time>2013-02-21T14:21:32Z</time>
      </trkpt>
      <trkpt lat="45.21254" lon="5.98212">
        <ele>1764.64</ele>
        <time>2013-02-21T14:21:34Z</time>
      </trkpt>
      <trkpt lat="45.21256" lon="5.98213">
        <ele>1762.23</ele>
        <time>2013-02-21T14:21:36Z</time>
      </trkpt>
      <trkpt lat="45.21261" lon="5.98212">
        <ele>1761.27</ele>
        <time>2013-02-21T14:21:38Z</time>
      </trkpt>
      <trkpt lat="45.21262" lon="5.98229">
        <ele>1756.47</ele>
        <time>2013-02-21T14:21:42Z</time>
      </trkpt>
      <trkpt lat="45.21262" lon="5.98232">
        <ele>1753.1</ele>
        <time>2013-02-21T14:21:45Z</time>
      </trkpt>
      <trkpt lat="45.21263" lon="5.98237">
        <ele>1751.66</ele>
        <time>2013-02-21T14:21:58Z</time>
      </trkpt>
      <trkpt lat="45.21262" lon="5.98249">
        <ele>1748.78</ele>
        <time>2013-02-21T14:22:04Z</time>
      </trkpt>
      <trkpt lat="45.21259" lon="5.98263">
        <ele>1747.33</ele>
        <time>2013-02-21T14:22:18Z</time>
      </trkpt>
      <trkpt lat="45.21254" lon="5.98279">
        <ele>1747.33</ele>
        <time>2013-02-21T14:22:33Z</time>
      </trkpt>
      <trkpt lat="45.2125" lon="5.98291">
        <ele>1747.33</ele>
        <time>2013-02-21T14:22:46Z</time>
      </trkpt>
      <trkpt lat="45.21247" lon="5.98301">
        <ele>1748.29</ele>
        <time>2013-02-21T14:22:57Z</time>
      </trkpt>
      <trkpt lat="45.21241" lon="5.98311">
        <ele>1750.22</ele>
        <time>2013-02-21T14:23:11Z</time>
      </trkpt>
      <trkpt lat="45.21237" lon="5.98318">
        <ele>1751.66</ele>
        <time>2013-02-21T14:23:24Z</time>
      </trkpt>
      <trkpt lat="45.21232" lon="5.98324">
        <ele>1752.62</ele>
        <time>2013-02-21T14:23:34Z</time>
      </trkpt>
      <trkpt lat="45.21225" lon="5.98333">
        <ele>1754.06</ele>
        <time>2013-02-21T14:23:49Z</time>
      </trkpt>
      <trkpt lat="45.21218" lon="5.98355">
        <ele>1753.58</ele>
        <time>2013-02-21T14:24:00Z</time>
      </trkpt>
      <trkpt lat="45.21216" lon="5.98369">
        <ele>1749.74</ele>
        <time>2013-02-21T14:24:03Z</time>
      </trkpt>
      <trkpt lat="45.21215" lon="5.98374">
        <ele>1749.74</ele>
        <time>2013-02-21T14:24:04Z</time>
      </trkpt>
      <trkpt lat="45.21214" lon="5.98385">
        <ele>1746.37</ele>
        <time>2013-02-21T14:24:07Z</time>
      </trkpt>
      <trkpt lat="45.2121" lon="5.98394">
        <ele>1745.89</ele>
        <time>2013-02-21T14:24:26Z</time>
      </trkpt>
      <trkpt lat="45.21208" lon="5.98403">
        <ele>1747.81</ele>
        <time>2013-02-21T14:24:40Z</time>
      </trkpt>
      <trkpt lat="45.21207" lon="5.98416">
        <ele>1748.29</ele>
        <time>2013-02-21T14:24:53Z</time>
      </trkpt>
      <trkpt lat="45.21207" lon="5.98417">
        <ele>1748.78</ele>
        <time>2013-02-21T14:24:55Z</time>
      </trkpt>
      <trkpt lat="45.21207" lon="5.98448">
        <ele>1744.45</ele>
        <time>2013-02-21T14:25:07Z</time>
      </trkpt>
      <trkpt lat="45.21207" lon="5.98452">
        <ele>1744.45</ele>
        <time>2013-02-21T14:25:08Z</time>
      </trkpt>
      <trkpt lat="45.2121" lon="5.98461">
        <ele>1742.53</ele>
        <time>2013-02-21T14:25:11Z</time>
      </trkpt>
      <trkpt lat="45.21212" lon="5.98466">
        <ele>1739.64</ele>
        <time>2013-02-21T14:25:14Z</time>
      </trkpt>
      <trkpt lat="45.21213" lon="5.98467">
        <ele>1737.72</ele>
        <time>2013-02-21T14:25:17Z</time>
      </trkpt>
      <trkpt lat="45.21215" lon="5.9847">
        <ele>1736.76</ele>
        <time>2013-02-21T14:25:31Z</time>
      </trkpt>
      <trkpt lat="45.21217" lon="5.9848">
        <ele>1738.68</ele>
        <time>2013-02-21T14:25:42Z</time>
      </trkpt>
      <trkpt lat="45.21219" lon="5.98486">
        <ele>1740.12</ele>
        <time>2013-02-21T14:25:55Z</time>
      </trkpt>
      <trkpt lat="45.21218" lon="5.9849">
        <ele>1741.08</ele>
        <time>2013-02-21T14:26:03Z</time>
      </trkpt>
      <trkpt lat="45.21219" lon="5.98499">
        <ele>1743.49</ele>
        <time>2013-02-21T14:26:16Z</time>
      </trkpt>
      <trkpt lat="45.21221" lon="5.98504">
        <ele>1744.45</ele>
        <time>2013-02-21T14:26:26Z</time>
      </trkpt>
      <trkpt lat="45.21221" lon="5.98512">
        <ele>1746.37</ele>
        <time>2013-02-21T14:26:39Z</time>
      </trkpt>
      <trkpt lat="45.2122" lon="5.98517">
        <ele>1748.78</ele>
        <time>2013-02-21T14:26:54Z</time>
      </trkpt>
      <trkpt lat="45.21223" lon="5.98521">
        <ele>1749.26</ele>
        <time>2013-02-21T14:27:09Z</time>
      </trkpt>
      <trkpt lat="45.21224" lon="5.98528">
        <ele>1750.7</ele>
        <time>2013-02-21T14:27:22Z</time>
      </trkpt>
      <trkpt lat="45.21225" lon="5.98536">
        <ele>1752.14</ele>
        <time>2013-02-21T14:27:34Z</time>
      </trkpt>
      <trkpt lat="45.21223" lon="5.98537">
        <ele>1752.62</ele>
        <time>2013-02-21T14:27:39Z</time>
      </trkpt>
      <trkpt lat="45.21221" lon="5.98534">
        <ele>1753.58</ele>
        <time>2013-02-21T14:27:49Z</time>
      </trkpt>
      <trkpt lat="45.21221" lon="5.98532">
        <ele>1755.02</ele>
        <time>2013-02-21T14:28:03Z</time>
      </trkpt>
      <trkpt lat="45.21221" lon="5.98543">
        <ele>1756.47</ele>
        <time>2013-02-21T14:28:16Z</time>
      </trkpt>
      <trkpt lat="45.2122" lon="5.98546">
        <ele>1757.43</ele>
        <time>2013-02-21T14:28:20Z</time>
      </trkpt>
      <trkpt lat="45.2122" lon="5.98554">
        <ele>1759.35</ele>
        <time>2013-02-21T14:28:32Z</time>
      </trkpt>
      <trkpt lat="45.2122" lon="5.98558">
        <ele>1760.79</ele>
        <time>2013-02-21T14:28:45Z</time>
      </trkpt>
      <trkpt lat="45.21218" lon="5.9857">
        <ele>1762.23</ele>
        <time>2013-02-21T14:29:08Z</time>
      </trkpt>
      <trkpt lat="45.21216" lon="5.98584">
        <ele>1763.68</ele>
        <time>2013-02-21T14:29:20Z</time>
      </trkpt>
      <trkpt lat="45.21213" lon="5.98596">
        <ele>1765.6</ele>
        <time>2013-02-21T14:29:31Z</time>
      </trkpt>
      <trkpt lat="45.21213" lon="5.98597">
        <ele>1765.6</ele>
        <time>2013-02-21T14:29:32Z</time>
      </trkpt>
      <trkpt lat="45.21209" lon="5.98607">
        <ele>1766.56</ele>
        <time>2013-02-21T14:29:44Z</time>
      </trkpt>
      <trkpt lat="45.21205" lon="5.98609">
        <ele>1767.52</ele>
        <time>2013-02-21T14:29:49Z</time>
      </trkpt>
      <trkpt lat="45.21198" lon="5.98607">
        <ele>1768.96</ele>
        <time>2013-02-21T14:29:58Z</time>
      </trkpt>
      <trkpt lat="45.2119" lon="5.98609">
        <ele>1770.41</ele>
        <time>2013-02-21T14:30:09Z</time>
      </trkpt>
      <trkpt lat="45.21184" lon="5.98611">
        <ele>1772.33</ele>
        <time>2013-02-21T14:30:19Z</time>
      </trkpt>
      <trkpt lat="45.21178" lon="5.98614">
        <ele>1775.21</ele>
        <time>2013-02-21T14:30:34Z</time>
      </trkpt>
      <trkpt lat="45.21171" lon="5.98619">
        <ele>1777.61</ele>
        <time>2013-02-21T14:30:49Z</time>
      </trkpt>
      <trkpt lat="45.21171" lon="5.98619">
        <ele>1778.1</ele>
        <time>2013-02-21T14:30:50Z</time>
      </trkpt>
      <trkpt lat="45.21167" lon="5.98625">
        <ele>1779.54</ele>
        <time>2013-02-21T14:30:59Z</time>
      </trkpt>
      <trkpt lat="45.21163" lon="5.9863">
        <ele>1781.46</ele>
        <time>2013-02-21T14:31:11Z</time>
      </trkpt>
      <trkpt lat="45.21162" lon="5.9863">
        <ele>1781.94</ele>
        <time>2013-02-21T14:31:27Z</time>
      </trkpt>
      <trkpt lat="45.21162" lon="5.98626">
        <ele>1783.38</ele>
        <time>2013-02-21T14:31:53Z</time>
      </trkpt>
      <trkpt lat="45.21161" lon="5.98623">
        <ele>1783.86</ele>
        <time>2013-02-21T14:31:57Z</time>
      </trkpt>
      <trkpt lat="45.21161" lon="5.98614">
        <ele>1784.82</ele>
        <time>2013-02-21T14:32:09Z</time>
      </trkpt>
      <trkpt lat="45.21162" lon="5.98604">
        <ele>1788.19</ele>
        <time>2013-02-21T14:32:21Z</time>
      </trkpt>
      <trkpt lat="45.21163" lon="5.98594">
        <ele>1790.11</ele>
        <time>2013-02-21T14:32:34Z</time>
      </trkpt>
      <trkpt lat="45.21162" lon="5.98595">
        <ele>1791.07</ele>
        <time>2013-02-21T14:32:45Z</time>
      </trkpt>
      <trkpt lat="45.21156" lon="5.98602">
        <ele>1792.52</ele>
        <time>2013-02-21T14:32:55Z</time>
      </trkpt>
      <trkpt lat="45.21151" lon="5.98609">
        <ele>1793.96</ele>
        <time>2013-02-21T14:33:05Z</time>
      </trkpt>
      <trkpt lat="45.21151" lon="5.98609">
        <ele>1794.44</ele>
        <time>2013-02-21T14:33:07Z</time>
      </trkpt>
      <trkpt lat="45.21149" lon="5.98616">
        <ele>1796.84</ele>
        <time>2013-02-21T14:33:17Z</time>
      </trkpt>
      <trkpt lat="45.21144" lon="5.98622">
        <ele>1798.28</ele>
        <time>2013-02-21T14:33:27Z</time>
      </trkpt>
      <trkpt lat="45.21144" lon="5.98624">
        <ele>1799.24</ele>
        <time>2013-02-21T14:33:31Z</time>
      </trkpt>
      <trkpt lat="45.2114" lon="5.98633">
        <ele>1801.65</ele>
        <time>2013-02-21T14:33:42Z</time>
      </trkpt>
      <trkpt lat="45.21138" lon="5.98642">
        <ele>1803.57</ele>
        <time>2013-02-21T14:33:54Z</time>
      </trkpt>
      <trkpt lat="45.21136" lon="5.98641">
        <ele>1805.01</ele>
        <time>2013-02-21T14:34:06Z</time>
      </trkpt>
      <trkpt lat="45.21133" lon="5.98634">
        <ele>1807.42</ele>
        <time>2013-02-21T14:34:19Z</time>
      </trkpt>
      <trkpt lat="45.2113" lon="5.98625">
        <ele>1809.34</ele>
        <time>2013-02-21T14:34:31Z</time>
      </trkpt>
      <trkpt lat="45.21128" lon="5.98622">
        <ele>1810.3</ele>
        <time>2013-02-21T14:34:36Z</time>
      </trkpt>
      <trkpt lat="45.21128" lon="5.98617">
        <ele>1811.74</ele>
        <time>2013-02-21T14:34:41Z</time>
      </trkpt>
      <trkpt lat="45.21128" lon="5.98611">
        <ele>1812.22</ele>
        <time>2013-02-21T14:34:46Z</time>
      </trkpt>
      <trkpt lat="45.21127" lon="5.98603">
        <ele>1814.63</ele>
        <time>2013-02-21T14:34:56Z</time>
      </trkpt>
      <trkpt lat="45.21127" lon="5.98595">
        <ele>1816.55</ele>
        <time>2013-02-21T14:35:07Z</time>
      </trkpt>
      <trkpt lat="45.21128" lon="5.98592">
        <ele>1817.99</ele>
        <time>2013-02-21T14:35:14Z</time>
      </trkpt>
      <trkpt lat="45.21129" lon="5.98578">
        <ele>1819.43</ele>
        <time>2013-02-21T14:35:28Z</time>
      </trkpt>
      <trkpt lat="45.2113" lon="5.98569">
        <ele>1821.35</ele>
        <time>2013-02-21T14:35:38Z</time>
      </trkpt>
      <trkpt lat="45.21131" lon="5.98563">
        <ele>1823.28</ele>
        <time>2013-02-21T14:35:46Z</time>
      </trkpt>
      <trkpt lat="45.21133" lon="5.98557">
        <ele>1824.72</ele>
        <time>2013-02-21T14:36:00Z</time>
      </trkpt>
      <trkpt lat="45.21135" lon="5.98551">
        <ele>1826.16</ele>
        <time>2013-02-21T14:36:32Z</time>
      </trkpt>
      <trkpt lat="45.21137" lon="5.98547">
        <ele>1826.64</ele>
        <time>2013-02-21T14:36:35Z</time>
      </trkpt>
      <trkpt lat="45.21139" lon="5.98539">
        <ele>1828.08</ele>
        <time>2013-02-21T14:36:44Z</time>
      </trkpt>
      <trkpt lat="45.21142" lon="5.98529">
        <ele>1830.01</ele>
        <time>2013-02-21T14:36:53Z</time>
      </trkpt>
      <trkpt lat="45.21145" lon="5.98518">
        <ele>1831.45</ele>
        <time>2013-02-21T14:37:04Z</time>
      </trkpt>
      <trkpt lat="45.21147" lon="5.98513">
        <ele>1833.37</ele>
        <time>2013-02-21T14:37:18Z</time>
      </trkpt>
      <trkpt lat="45.2114" lon="5.98517">
        <ele>1836.26</ele>
        <time>2013-02-21T14:37:32Z</time>
      </trkpt>
      <trkpt lat="45.21133" lon="5.98523">
        <ele>1838.18</ele>
        <time>2013-02-21T14:37:44Z</time>
      </trkpt>
      <trkpt lat="45.2113" lon="5.98526">
        <ele>1839.14</ele>
        <time>2013-02-21T14:37:48Z</time>
      </trkpt>
      <trkpt lat="45.21122" lon="5.98532">
        <ele>1841.06</ele>
        <time>2013-02-21T14:37:58Z</time>
      </trkpt>
      <trkpt lat="45.21117" lon="5.98537">
        <ele>1842.98</ele>
        <time>2013-02-21T14:38:08Z</time>
      </trkpt>
      <trkpt lat="45.21113" lon="5.9854">
        <ele>1844.91</ele>
        <time>2013-02-21T14:38:18Z</time>
      </trkpt>
      <trkpt lat="45.2111" lon="5.98543">
        <ele>1845.87</ele>
        <time>2013-02-21T14:38:28Z</time>
      </trkpt>
      <trkpt lat="45.21105" lon="5.98548">
        <ele>1847.79</ele>
        <time>2013-02-21T14:38:38Z</time>
      </trkpt>
      <trkpt lat="45.21098" lon="5.98551">
        <ele>1851.16</ele>
        <time>2013-02-21T14:38:55Z</time>
      </trkpt>
      <trkpt lat="45.21093" lon="5.98556">
        <ele>1853.08</ele>
        <time>2013-02-21T14:39:06Z</time>
      </trkpt>
      <trkpt lat="45.21088" lon="5.98563">
        <ele>1855</ele>
        <time>2013-02-21T14:39:18Z</time>
      </trkpt>
      <trkpt lat="45.21084" lon="5.98571">
        <ele>1857.4</ele>
        <time>2013-02-21T14:39:29Z</time>
      </trkpt>
      <trkpt lat="45.2108" lon="5.98582">
        <ele>1859.33</ele>
        <time>2013-02-21T14:39:41Z</time>
      </trkpt>
      <trkpt lat="45.21077" lon="5.98592">
        <ele>1861.25</ele>
        <time>2013-02-21T14:39:53Z</time>
      </trkpt>
      <trkpt lat="45.21076" lon="5.98597">
        <ele>1862.21</ele>
        <time>2013-02-21T14:39:58Z</time>
      </trkpt>
      <trkpt lat="45.21073" lon="5.98607">
        <ele>1863.65</ele>
        <time>2013-02-21T14:40:07Z</time>
      </trkpt>
      <trkpt lat="45.21074" lon="5.98616">
        <ele>1865.58</ele>
        <time>2013-02-21T14:40:19Z</time>
      </trkpt>
      <trkpt lat="45.21075" lon="5.98625">
        <ele>1867.98</ele>
        <time>2013-02-21T14:40:30Z</time>
      </trkpt>
      <trkpt lat="45.21075" lon="5.98633">
        <ele>1870.38</ele>
        <time>2013-02-21T14:40:41Z</time>
      </trkpt>
      <trkpt lat="45.21075" lon="5.98631">
        <ele>1870.86</ele>
        <time>2013-02-21T14:40:46Z</time>
      </trkpt>
      <trkpt lat="45.21071" lon="5.98623">
        <ele>1872.79</ele>
        <time>2013-02-21T14:40:59Z</time>
      </trkpt>
      <trkpt lat="45.21066" lon="5.98616">
        <ele>1875.19</ele>
        <time>2013-02-21T14:41:12Z</time>
      </trkpt>
      <trkpt lat="45.21063" lon="5.98614">
        <ele>1875.67</ele>
        <time>2013-02-21T14:41:17Z</time>
      </trkpt>
      <trkpt lat="45.21058" lon="5.98607">
        <ele>1878.55</ele>
        <time>2013-02-21T14:41:29Z</time>
      </trkpt>
      <trkpt lat="45.21059" lon="5.98606">
        <ele>1879.03</ele>
        <time>2013-02-21T14:42:00Z</time>
      </trkpt>
      <trkpt lat="45.21056" lon="5.986">
        <ele>1880</ele>
        <time>2013-02-21T14:43:38Z</time>
      </trkpt>
      <trkpt lat="45.21053" lon="5.98596">
        <ele>1880.96</ele>
        <time>2013-02-21T14:43:48Z</time>
      </trkpt>
      <trkpt lat="45.21053" lon="5.98601">
        <ele>1881.92</ele>
        <time>2013-02-21T14:43:59Z</time>
      </trkpt>
      <trkpt lat="45.21052" lon="5.98605">
        <ele>1883.36</ele>
        <time>2013-02-21T14:44:04Z</time>
      </trkpt>
      <trkpt lat="45.2105" lon="5.98615">
        <ele>1886.24</ele>
        <time>2013-02-21T14:44:18Z</time>
      </trkpt>
      <trkpt lat="45.21048" lon="5.98622">
        <ele>1888.17</ele>
        <time>2013-02-21T14:44:27Z</time>
      </trkpt>
      <trkpt lat="45.21048" lon="5.98627">
        <ele>1889.13</ele>
        <time>2013-02-21T14:44:32Z</time>
      </trkpt>
      <trkpt lat="45.21046" lon="5.98636">
        <ele>1891.53</ele>
        <time>2013-02-21T14:44:43Z</time>
      </trkpt>
      <trkpt lat="45.21043" lon="5.9864">
        <ele>1893.93</ele>
        <time>2013-02-21T14:44:55Z</time>
      </trkpt>
      <trkpt lat="45.21033" lon="5.98642">
        <ele>1896.82</ele>
        <time>2013-02-21T14:45:10Z</time>
      </trkpt>
      <trkpt lat="45.21024" lon="5.98645">
        <ele>1899.7</ele>
        <time>2013-02-21T14:45:24Z</time>
      </trkpt>
      <trkpt lat="45.21019" lon="5.98645">
        <ele>1901.63</ele>
        <time>2013-02-21T14:45:34Z</time>
      </trkpt>
      <trkpt lat="45.21012" lon="5.98648">
        <ele>1903.55</ele>
        <time>2013-02-21T14:45:45Z</time>
      </trkpt>
      <trkpt lat="45.21006" lon="5.98654">
        <ele>1905.95</ele>
        <time>2013-02-21T14:45:58Z</time>
      </trkpt>
      <trkpt lat="45.21003" lon="5.98659">
        <ele>1907.39</ele>
        <time>2013-02-21T14:46:07Z</time>
      </trkpt>
      <trkpt lat="45.21" lon="5.98669">
        <ele>1909.32</ele>
        <time>2013-02-21T14:46:18Z</time>
      </trkpt>
      <trkpt lat="45.20998" lon="5.98678">
        <ele>1911.72</ele>
        <time>2013-02-21T14:46:31Z</time>
      </trkpt>
      <trkpt lat="45.20997" lon="5.98684">
        <ele>1913.16</ele>
        <time>2013-02-21T14:46:42Z</time>
      </trkpt>
      <trkpt lat="45.20993" lon="5.98678">
        <ele>1914.6</ele>
        <time>2013-02-21T14:46:53Z</time>
      </trkpt>
      <trkpt lat="45.20991" lon="5.98671">
        <ele>1917.97</ele>
        <time>2013-02-21T14:47:12Z</time>
      </trkpt>
      <trkpt lat="45.20992" lon="5.9867">
        <ele>1917.97</ele>
        <time>2013-02-21T14:47:24Z</time>
      </trkpt>
      <trkpt lat="45.20991" lon="5.98673">
        <ele>1917.49</ele>
        <time>2013-02-21T14:47:33Z</time>
      </trkpt>
      <trkpt lat="45.20991" lon="5.98669">
        <ele>1917.49</ele>
        <time>2013-02-21T14:48:27Z</time>
      </trkpt>
      <trkpt lat="45.20983" lon="5.98656">
        <ele>1920.37</ele>
        <time>2013-02-21T14:48:54Z</time>
      </trkpt>
      <trkpt lat="45.2098" lon="5.98641">
        <ele>1924.22</ele>
        <time>2013-02-21T14:49:09Z</time>
      </trkpt>
      <trkpt lat="45.20982" lon="5.98629">
        <ele>1927.1</ele>
        <time>2013-02-21T14:49:21Z</time>
      </trkpt>
      <trkpt lat="45.20982" lon="5.98625">
        <ele>1928.06</ele>
        <time>2013-02-21T14:49:26Z</time>
      </trkpt>
      <trkpt lat="45.2098" lon="5.98613">
        <ele>1930.95</ele>
        <time>2013-02-21T14:49:40Z</time>
      </trkpt>
      <trkpt lat="45.20978" lon="5.98604">
        <ele>1933.35</ele>
        <time>2013-02-21T14:49:51Z</time>
      </trkpt>
      <trkpt lat="45.20978" lon="5.98598">
        <ele>1935.27</ele>
        <time>2013-02-21T14:50:03Z</time>
      </trkpt>
      <trkpt lat="45.20971" lon="5.98592">
        <ele>1937.19</ele>
        <time>2013-02-21T14:50:15Z</time>
      </trkpt>
      <trkpt lat="45.20968" lon="5.98589">
        <ele>1937.67</ele>
        <time>2013-02-21T14:50:20Z</time>
      </trkpt>
      <trkpt lat="45.20958" lon="5.9857">
        <ele>1939.6</ele>
        <time>2013-02-21T14:50:38Z</time>
      </trkpt>
      <trkpt lat="45.20954" lon="5.98558">
        <ele>1941.52</ele>
        <time>2013-02-21T14:50:53Z</time>
      </trkpt>
      <trkpt lat="45.2095" lon="5.9855">
        <ele>1943.44</ele>
        <time>2013-02-21T14:51:04Z</time>
      </trkpt>
      <trkpt lat="45.20945" lon="5.98541">
        <ele>1946.33</ele>
        <time>2013-02-21T14:51:18Z</time>
      </trkpt>
      <trkpt lat="45.20938" lon="5.98531">
        <ele>1948.25</ele>
        <time>2013-02-21T14:51:32Z</time>
      </trkpt>
      <trkpt lat="45.20931" lon="5.98524">
        <ele>1950.17</ele>
        <time>2013-02-21T14:51:45Z</time>
      </trkpt>
      <trkpt lat="45.20925" lon="5.98519">
        <ele>1952.09</ele>
        <time>2013-02-21T14:51:57Z</time>
      </trkpt>
      <trkpt lat="45.2092" lon="5.98512">
        <ele>1954.98</ele>
        <time>2013-02-21T14:52:10Z</time>
      </trkpt>
      <trkpt lat="45.20915" lon="5.98509">
        <ele>1956.9</ele>
        <time>2013-02-21T14:52:22Z</time>
      </trkpt>
      <trkpt lat="45.2091" lon="5.98505">
        <ele>1958.34</ele>
        <time>2013-02-21T14:52:32Z</time>
      </trkpt>
      <trkpt lat="45.20902" lon="5.98502">
        <ele>1959.78</ele>
        <time>2013-02-21T14:52:44Z</time>
      </trkpt>
      <trkpt lat="45.20902" lon="5.98497">
        <ele>1962.19</ele>
        <time>2013-02-21T14:52:57Z</time>
      </trkpt>
      <trkpt lat="45.20903" lon="5.98494">
        <ele>1962.67</ele>
        <time>2013-02-21T14:53:02Z</time>
      </trkpt>
      <trkpt lat="45.20909" lon="5.98484">
        <ele>1964.11</ele>
        <time>2013-02-21T14:53:14Z</time>
      </trkpt>
      <trkpt lat="45.20914" lon="5.98478">
        <ele>1966.51</ele>
        <time>2013-02-21T14:53:26Z</time>
      </trkpt>
      <trkpt lat="45.20919" lon="5.98469">
        <ele>1968.44</ele>
        <time>2013-02-21T14:53:37Z</time>
      </trkpt>
      <trkpt lat="45.20919" lon="5.98467">
        <ele>1968.92</ele>
        <time>2013-02-21T14:53:40Z</time>
      </trkpt>
      <trkpt lat="45.20924" lon="5.98456">
        <ele>1971.32</ele>
        <time>2013-02-21T14:53:55Z</time>
      </trkpt>
      <trkpt lat="45.20927" lon="5.98448">
        <ele>1973.24</ele>
        <time>2013-02-21T14:54:06Z</time>
      </trkpt>
      <trkpt lat="45.2093" lon="5.98442">
        <ele>1975.17</ele>
        <time>2013-02-21T14:54:18Z</time>
      </trkpt>
      <trkpt lat="45.20925" lon="5.98442">
        <ele>1976.61</ele>
        <time>2013-02-21T14:54:31Z</time>
      </trkpt>
      <trkpt lat="45.2092" lon="5.98439">
        <ele>1978.53</ele>
        <time>2013-02-21T14:54:41Z</time>
      </trkpt>
      <trkpt lat="45.2092" lon="5.98439">
        <ele>1978.53</ele>
        <time>2013-02-21T14:54:42Z</time>
      </trkpt>
      <trkpt lat="45.20916" lon="5.98438">
        <ele>1979.97</ele>
        <time>2013-02-21T14:54:50Z</time>
      </trkpt>
      <trkpt lat="45.20911" lon="5.98436">
        <ele>1981.9</ele>
        <time>2013-02-21T14:55:00Z</time>
      </trkpt>
      <trkpt lat="45.20906" lon="5.98434">
        <ele>1983.82</ele>
        <time>2013-02-21T14:55:10Z</time>
      </trkpt>
      <trkpt lat="45.20901" lon="5.98433">
        <ele>1985.74</ele>
        <time>2013-02-21T14:55:21Z</time>
      </trkpt>
      <trkpt lat="45.20895" lon="5.9843">
        <ele>1987.66</ele>
        <time>2013-02-21T14:55:31Z</time>
      </trkpt>
      <trkpt lat="45.20892" lon="5.98426">
        <ele>1989.59</ele>
        <time>2013-02-21T14:55:40Z</time>
      </trkpt>
      <trkpt lat="45.20888" lon="5.98421">
        <ele>1991.99</ele>
        <time>2013-02-21T14:55:51Z</time>
      </trkpt>
      <trkpt lat="45.20882" lon="5.98418">
        <ele>1994.39</ele>
        <time>2013-02-21T14:56:02Z</time>
      </trkpt>
      <trkpt lat="45.20882" lon="5.98416">
        <ele>1995.83</ele>
        <time>2013-02-21T14:56:13Z</time>
      </trkpt>
      <trkpt lat="45.20885" lon="5.9841">
        <ele>1997.28</ele>
        <time>2013-02-21T14:56:24Z</time>
      </trkpt>
      <trkpt lat="45.20889" lon="5.98403">
        <ele>1999.68</ele>
        <time>2013-02-21T14:56:35Z</time>
      </trkpt>
      <trkpt lat="45.20893" lon="5.98396">
        <ele>2001.6</ele>
        <time>2013-02-21T14:56:47Z</time>
      </trkpt>
      <trkpt lat="45.20897" lon="5.98389">
        <ele>2004.01</ele>
        <time>2013-02-21T14:56:59Z</time>
      </trkpt>
      <trkpt lat="45.20897" lon="5.98388">
        <ele>2004.01</ele>
        <time>2013-02-21T14:57:00Z</time>
      </trkpt>
      <trkpt lat="45.20902" lon="5.9838">
        <ele>2006.89</ele>
        <time>2013-02-21T14:57:13Z</time>
      </trkpt>
      <trkpt lat="45.20907" lon="5.98371">
        <ele>2009.29</ele>
        <time>2013-02-21T14:57:26Z</time>
      </trkpt>
      <trkpt lat="45.2091" lon="5.98368">
        <ele>2011.7</ele>
        <time>2013-02-21T14:57:39Z</time>
      </trkpt>
      <trkpt lat="45.20909" lon="5.98366">
        <ele>2012.66</ele>
        <time>2013-02-21T14:57:52Z</time>
      </trkpt>
      <trkpt lat="45.20904" lon="5.98365">
        <ele>2014.1</ele>
        <time>2013-02-21T14:58:02Z</time>
      </trkpt>
      <trkpt lat="45.209" lon="5.98363">
        <ele>2016.02</ele>
        <time>2013-02-21T14:58:11Z</time>
      </trkpt>
      <trkpt lat="45.20895" lon="5.98361">
        <ele>2017.94</ele>
        <time>2013-02-21T14:58:22Z</time>
      </trkpt>
      <trkpt lat="45.20888" lon="5.98359">
        <ele>2019.87</ele>
        <time>2013-02-21T14:58:34Z</time>
      </trkpt>
      <trkpt lat="45.20883" lon="5.98357">
        <ele>2022.27</ele>
        <time>2013-02-21T14:58:45Z</time>
      </trkpt>
      <trkpt lat="45.20879" lon="5.98354">
        <ele>2024.19</ele>
        <time>2013-02-21T14:58:56Z</time>
      </trkpt>
      <trkpt lat="45.20873" lon="5.98354">
        <ele>2026.12</ele>
        <time>2013-02-21T14:59:06Z</time>
      </trkpt>
      <trkpt lat="45.20869" lon="5.98352">
        <ele>2028.04</ele>
        <time>2013-02-21T14:59:18Z</time>
      </trkpt>
      <trkpt lat="45.20862" lon="5.98349">
        <ele>2030.44</ele>
        <time>2013-02-21T14:59:32Z</time>
      </trkpt>
      <trkpt lat="45.20861" lon="5.98348">
        <ele>2031.88</ele>
        <time>2013-02-21T14:59:43Z</time>
      </trkpt>
      <trkpt lat="45.20867" lon="5.9834">
        <ele>2033.33</ele>
        <time>2013-02-21T14:59:57Z</time>
      </trkpt>
      <trkpt lat="45.20871" lon="5.98333">
        <ele>2036.21</ele>
        <time>2013-02-21T15:00:11Z</time>
      </trkpt>
      <trkpt lat="45.20873" lon="5.9833">
        <ele>2036.69</ele>
        <time>2013-02-21T15:00:15Z</time>
      </trkpt>
      <trkpt lat="45.20878" lon="5.98321">
        <ele>2039.09</ele>
        <time>2013-02-21T15:00:30Z</time>
      </trkpt>
      <trkpt lat="45.20881" lon="5.98317">
        <ele>2040.54</ele>
        <time>2013-02-21T15:00:40Z</time>
      </trkpt>
      <trkpt lat="45.20886" lon="5.9831">
        <ele>2042.94</ele>
        <time>2013-02-21T15:00:52Z</time>
      </trkpt>
      <trkpt lat="45.20893" lon="5.98304">
        <ele>2045.34</ele>
        <time>2013-02-21T15:01:06Z</time>
      </trkpt>
      <trkpt lat="45.20893" lon="5.98305">
        <ele>2046.78</ele>
        <time>2013-02-21T15:01:23Z</time>
      </trkpt>
      <trkpt lat="45.2089" lon="5.98302">
        <ele>2047.75</ele>
        <time>2013-02-21T15:01:32Z</time>
      </trkpt>
      <trkpt lat="45.20883" lon="5.98298">
        <ele>2050.63</ele>
        <time>2013-02-21T15:01:48Z</time>
      </trkpt>
      <trkpt lat="45.20878" lon="5.98297">
        <ele>2052.55</ele>
        <time>2013-02-21T15:01:58Z</time>
      </trkpt>
      <trkpt lat="45.20876" lon="5.98294">
        <ele>2053.51</ele>
        <time>2013-02-21T15:02:06Z</time>
      </trkpt>
      <trkpt lat="45.20872" lon="5.98294">
        <ele>2055.44</ele>
        <time>2013-02-21T15:02:13Z</time>
      </trkpt>
      <trkpt lat="45.20866" lon="5.98293">
        <ele>2056.4</ele>
        <time>2013-02-21T15:02:23Z</time>
      </trkpt>
      <trkpt lat="45.2086" lon="5.98291">
        <ele>2058.32</ele>
        <time>2013-02-21T15:02:34Z</time>
      </trkpt>
      <trkpt lat="45.20854" lon="5.9829">
        <ele>2061.2</ele>
        <time>2013-02-21T15:02:44Z</time>
      </trkpt>
      <trkpt lat="45.20849" lon="5.98289">
        <ele>2062.65</ele>
        <time>2013-02-21T15:02:55Z</time>
      </trkpt>
      <trkpt lat="45.20846" lon="5.98288">
        <ele>2064.09</ele>
        <time>2013-02-21T15:03:08Z</time>
      </trkpt>
      <trkpt lat="45.20841" lon="5.98287">
        <ele>2065.53</ele>
        <time>2013-02-21T15:03:16Z</time>
      </trkpt>
      <trkpt lat="45.20841" lon="5.98288">
        <ele>2066.49</ele>
        <time>2013-02-21T15:03:26Z</time>
      </trkpt>
      <trkpt lat="45.20843" lon="5.98285">
        <ele>2066.97</ele>
        <time>2013-02-21T15:03:32Z</time>
      </trkpt>
      <trkpt lat="45.20847" lon="5.98277">
        <ele>2068.89</ele>
        <time>2013-02-21T15:03:47Z</time>
      </trkpt>
      <trkpt lat="45.20852" lon="5.98267">
        <ele>2071.3</ele>
        <time>2013-02-21T15:04:01Z</time>
      </trkpt>
      <trkpt lat="45.20855" lon="5.98262">
        <ele>2072.74</ele>
        <time>2013-02-21T15:04:15Z</time>
      </trkpt>
      <trkpt lat="45.2086" lon="5.98258">
        <ele>2074.66</ele>
        <time>2013-02-21T15:04:29Z</time>
      </trkpt>
      <trkpt lat="45.20857" lon="5.98258">
        <ele>2075.62</ele>
        <time>2013-02-21T15:04:41Z</time>
      </trkpt>
      <trkpt lat="45.2085" lon="5.98257">
        <ele>2078.03</ele>
        <time>2013-02-21T15:04:57Z</time>
      </trkpt>
      <trkpt lat="45.20846" lon="5.98257">
        <ele>2079.47</ele>
        <time>2013-02-21T15:05:06Z</time>
      </trkpt>
      <trkpt lat="45.2084" lon="5.98257">
        <ele>2081.39</ele>
        <time>2013-02-21T15:05:19Z</time>
      </trkpt>
      <trkpt lat="45.20836" lon="5.98257">
        <ele>2083.31</ele>
        <time>2013-02-21T15:05:29Z</time>
      </trkpt>
      <trkpt lat="45.20832" lon="5.98254">
        <ele>2085.24</ele>
        <time>2013-02-21T15:05:39Z</time>
      </trkpt>
      <trkpt lat="45.20828" lon="5.98252">
        <ele>2086.68</ele>
        <time>2013-02-21T15:05:48Z</time>
      </trkpt>
      <trkpt lat="45.20826" lon="5.98251">
        <ele>2088.12</ele>
        <time>2013-02-21T15:06:02Z</time>
      </trkpt>
      <trkpt lat="45.20827" lon="5.98251">
        <ele>2088.12</ele>
        <time>2013-02-21T15:06:06Z</time>
      </trkpt>
      <trkpt lat="45.20832" lon="5.98243">
        <ele>2089.56</ele>
        <time>2013-02-21T15:06:18Z</time>
      </trkpt>
      <trkpt lat="45.20836" lon="5.98236">
        <ele>2091.97</ele>
        <time>2013-02-21T15:06:32Z</time>
      </trkpt>
      <trkpt lat="45.20835" lon="5.98234">
        <ele>2092.93</ele>
        <time>2013-02-21T15:06:48Z</time>
      </trkpt>
      <trkpt lat="45.20831" lon="5.98233">
        <ele>2095.33</ele>
        <time>2013-02-21T15:07:08Z</time>
      </trkpt>
      <trkpt lat="45.20835" lon="5.98224">
        <ele>2097.25</ele>
        <time>2013-02-21T15:07:25Z</time>
      </trkpt>
      <trkpt lat="45.20832" lon="5.98226">
        <ele>2097.73</ele>
        <time>2013-02-21T15:07:36Z</time>
      </trkpt>
      <trkpt lat="45.20831" lon="5.98226">
        <ele>2098.21</ele>
        <time>2013-02-21T15:07:40Z</time>
      </trkpt>
      <trkpt lat="45.20829" lon="5.98226">
        <ele>2099.18</ele>
        <time>2013-02-21T15:07:50Z</time>
      </trkpt>
      <trkpt lat="45.20831" lon="5.98221">
        <ele>2100.62</ele>
        <time>2013-02-21T15:08:07Z</time>
      </trkpt>
      <trkpt lat="45.20829" lon="5.98222">
        <ele>2100.62</ele>
        <time>2013-02-21T15:08:36Z</time>
      </trkpt>
      <trkpt lat="45.20827" lon="5.98222">
        <ele>2102.06</ele>
        <time>2013-02-21T15:08:51Z</time>
      </trkpt>
      <trkpt lat="45.20828" lon="5.98219">
        <ele>2102.54</ele>
        <time>2013-02-21T15:09:03Z</time>
      </trkpt>
      <trkpt lat="45.20825" lon="5.98216">
        <ele>2102.06</ele>
        <time>2013-02-21T15:09:55Z</time>
      </trkpt>
      <trkpt lat="45.20827" lon="5.98217">
        <ele>2101.58</ele>
        <time>2013-02-21T15:10:13Z</time>
      </trkpt>
      <trkpt lat="45.20824" lon="5.98217">
        <ele>2103.5</ele>
        <time>2013-02-21T15:12:07Z</time>
      </trkpt>
      <trkpt lat="45.20824" lon="5.98214">
        <ele>2105.42</ele>
        <time>2013-02-21T15:12:21Z</time>
      </trkpt>
      <trkpt lat="45.20822" lon="5.98212">
        <ele>2106.87</ele>
        <time>2013-02-21T15:12:39Z</time>
      </trkpt>
      <trkpt lat="45.2082" lon="5.98211">
        <ele>2108.79</ele>
        <time>2013-02-21T15:12:54Z</time>
      </trkpt>
      <trkpt lat="45.2082" lon="5.98208">
        <ele>2110.71</ele>
        <time>2013-02-21T15:13:07Z</time>
      </trkpt>
      <trkpt lat="45.20819" lon="5.98206">
        <ele>2111.67</ele>
        <time>2013-02-21T15:13:20Z</time>
      </trkpt>
      <trkpt lat="45.20818" lon="5.98205">
        <ele>2112.63</ele>
        <time>2013-02-21T15:13:32Z</time>
      </trkpt>
      <trkpt lat="45.20816" lon="5.98208">
        <ele>2112.63</ele>
        <time>2013-02-21T15:13:49Z</time>
      </trkpt>
      <trkpt lat="45.20816" lon="5.98199">
        <ele>2114.56</ele>
        <time>2013-02-21T15:14:08Z</time>
      </trkpt>
      <trkpt lat="45.20818" lon="5.98197">
        <ele>2115.04</ele>
        <time>2013-02-21T15:14:36Z</time>
      </trkpt>
      <trkpt lat="45.20816" lon="5.98195">
        <ele>2116.48</ele>
        <time>2013-02-21T15:15:04Z</time>
      </trkpt>
      <trkpt lat="45.20806" lon="5.9821">
        <ele>2117.44</ele>
        <time>2013-02-21T15:17:46Z</time>
      </trkpt>
      <trkpt lat="45.208" lon="5.98199">
        <ele>2119.84</ele>
        <time>2013-02-21T15:18:32Z</time>
      </trkpt>
      <trkpt lat="45.20813" lon="5.98184">
        <ele>2121.77</ele>
        <time>2013-02-21T15:19:07Z</time>
      </trkpt>
      <trkpt lat="45.20798" lon="5.98198">
        <ele>2122.73</ele>
        <time>2013-02-21T15:19:29Z</time>
      </trkpt>
      <trkpt lat="45.20806" lon="5.98189">
        <ele>2123.69</ele>
        <time>2013-02-21T15:19:47Z</time>
      </trkpt>
      <trkpt lat="45.2081" lon="5.98185">
        <ele>2124.17</ele>
        <time>2013-02-21T15:20:04Z</time>
      </trkpt>
      <trkpt lat="45.20802" lon="5.98188">
        <ele>2126.09</ele>
        <time>2013-02-21T15:20:20Z</time>
      </trkpt>
      <trkpt lat="45.20801" lon="5.98185">
        <ele>2128.5</ele>
        <time>2013-02-21T15:20:38Z</time>
      </trkpt>
      <trkpt lat="45.20808" lon="5.98174">
        <ele>2131.38</ele>
        <time>2013-02-21T15:20:56Z</time>
      </trkpt>
      <trkpt lat="45.20804" lon="5.98177">
        <ele>2131.86</ele>
        <time>2013-02-21T15:21:09Z</time>
      </trkpt>
      <trkpt lat="45.20798" lon="5.9818">
        <ele>2133.78</ele>
        <time>2013-02-21T15:21:22Z</time>
      </trkpt>
      <trkpt lat="45.20788" lon="5.98186">
        <ele>2136.67</ele>
        <time>2013-02-21T15:21:42Z</time>
      </trkpt>
      <trkpt lat="45.20792" lon="5.98175">
        <ele>2138.59</ele>
        <time>2013-02-21T15:21:59Z</time>
      </trkpt>
      <trkpt lat="45.20797" lon="5.98168">
        <ele>2140.99</ele>
        <time>2013-02-21T15:22:19Z</time>
      </trkpt>
      <trkpt lat="45.20795" lon="5.98169">
        <ele>2141.47</ele>
        <time>2013-02-21T15:22:28Z</time>
      </trkpt>
      <trkpt lat="45.2079" lon="5.9817">
        <ele>2142.92</ele>
        <time>2013-02-21T15:22:41Z</time>
      </trkpt>
      <trkpt lat="45.2079" lon="5.9817">
        <ele>2143.88</ele>
        <time>2013-02-21T15:22:57Z</time>
      </trkpt>
      <trkpt lat="45.2079" lon="5.9817">
        <ele>2144.36</ele>
        <time>2013-02-21T15:23:53Z</time>
      </trkpt>
      <trkpt lat="45.20794" lon="5.98162">
        <ele>2144.84</ele>
        <time>2013-02-21T15:24:28Z</time>
      </trkpt>
      <trkpt lat="45.20798" lon="5.98156">
        <ele>2146.28</ele>
        <time>2013-02-21T15:24:40Z</time>
      </trkpt>
      <trkpt lat="45.20803" lon="5.98152">
        <ele>2149.16</ele>
        <time>2013-02-21T15:24:53Z</time>
      </trkpt>
      <trkpt lat="45.20803" lon="5.98155">
        <ele>2148.68</ele>
        <time>2013-02-21T15:25:08Z</time>
      </trkpt>
      <trkpt lat="45.20803" lon="5.98154">
        <ele>2149.65</ele>
        <time>2013-02-21T15:25:38Z</time>
      </trkpt>
      <trkpt lat="45.20798" lon="5.98153">
        <ele>2150.61</ele>
        <time>2013-02-21T15:25:55Z</time>
      </trkpt>
      <trkpt lat="45.20792" lon="5.98153">
        <ele>2151.57</ele>
        <time>2013-02-21T15:26:05Z</time>
      </trkpt>
      <trkpt lat="45.20783" lon="5.98154">
        <ele>2153.97</ele>
        <time>2013-02-21T15:26:19Z</time>
      </trkpt>
      <trkpt lat="45.20777" lon="5.98157">
        <ele>2155.89</ele>
        <time>2013-02-21T15:26:33Z</time>
      </trkpt>
      <trkpt lat="45.20774" lon="5.98162">
        <ele>2157.82</ele>
        <time>2013-02-21T15:26:41Z</time>
      </trkpt>
      <trkpt lat="45.20771" lon="5.98166">
        <ele>2159.26</ele>
        <time>2013-02-21T15:26:52Z</time>
      </trkpt>
      <trkpt lat="45.2077" lon="5.98167">
        <ele>2160.22</ele>
        <time>2013-02-21T15:27:09Z</time>
      </trkpt>
      <trkpt lat="45.2077" lon="5.98164">
        <ele>2160.7</ele>
        <time>2013-02-21T15:27:24Z</time>
      </trkpt>
      <trkpt lat="45.20771" lon="5.98159">
        <ele>2162.14</ele>
        <time>2013-02-21T15:27:40Z</time>
      </trkpt>
      <trkpt lat="45.2077" lon="5.98155">
        <ele>2163.58</ele>
        <time>2013-02-21T15:27:59Z</time>
      </trkpt>
      <trkpt lat="45.20771" lon="5.9815">
        <ele>2165.51</ele>
        <time>2013-02-21T15:28:09Z</time>
      </trkpt>
      <trkpt lat="45.20774" lon="5.98144">
        <ele>2166.95</ele>
        <time>2013-02-21T15:28:20Z</time>
      </trkpt>
      <trkpt lat="45.20775" lon="5.98141">
        <ele>2168.39</ele>
        <time>2013-02-21T15:28:33Z</time>
      </trkpt>
      <trkpt lat="45.2077" lon="5.98141">
        <ele>2169.35</ele>
        <time>2013-02-21T15:28:43Z</time>
      </trkpt>
      <trkpt lat="45.20765" lon="5.98142">
        <ele>2170.79</ele>
        <time>2013-02-21T15:28:54Z</time>
      </trkpt>
      <trkpt lat="45.20762" lon="5.98145">
        <ele>2172.72</ele>
        <time>2013-02-21T15:29:04Z</time>
      </trkpt>
      <trkpt lat="45.20757" lon="5.9815">
        <ele>2175.12</ele>
        <time>2013-02-21T15:29:17Z</time>
      </trkpt>
      <trkpt lat="45.20754" lon="5.98158">
        <ele>2177.52</ele>
        <time>2013-02-21T15:29:30Z</time>
      </trkpt>
      <trkpt lat="45.20752" lon="5.98156">
        <ele>2178.97</ele>
        <time>2013-02-21T15:29:43Z</time>
      </trkpt>
      <trkpt lat="45.20752" lon="5.98141">
        <ele>2181.37</ele>
        <time>2013-02-21T15:30:03Z</time>
      </trkpt>
      <trkpt lat="45.20753" lon="5.98135">
        <ele>2183.77</ele>
        <time>2013-02-21T15:30:16Z</time>
      </trkpt>
      <trkpt lat="45.20754" lon="5.98127">
        <ele>2185.69</ele>
        <time>2013-02-21T15:30:27Z</time>
      </trkpt>
      <trkpt lat="45.20757" lon="5.98119">
        <ele>2187.62</ele>
        <time>2013-02-21T15:30:39Z</time>
      </trkpt>
      <trkpt lat="45.20759" lon="5.98115">
        <ele>2189.54</ele>
        <time>2013-02-21T15:30:50Z</time>
      </trkpt>
      <trkpt lat="45.20757" lon="5.98117">
        <ele>2190.02</ele>
        <time>2013-02-21T15:31:07Z</time>
      </trkpt>
      <trkpt lat="45.20752" lon="5.98118">
        <ele>2191.46</ele>
        <time>2013-02-21T15:31:18Z</time>
      </trkpt>
      <trkpt lat="45.20747" lon="5.98122">
        <ele>2193.39</ele>
        <time>2013-02-21T15:31:30Z</time>
      </trkpt>
      <trkpt lat="45.20743" lon="5.98125">
        <ele>2195.31</ele>
        <time>2013-02-21T15:31:39Z</time>
      </trkpt>
      <trkpt lat="45.20738" lon="5.98129">
        <ele>2197.23</ele>
        <time>2013-02-21T15:31:50Z</time>
      </trkpt>
      <trkpt lat="45.20734" lon="5.98133">
        <ele>2199.15</ele>
        <time>2013-02-21T15:32:02Z</time>
      </trkpt>
      <trkpt lat="45.20733" lon="5.98133">
        <ele>2200.11</ele>
        <time>2013-02-21T15:32:17Z</time>
      </trkpt>
      <trkpt lat="45.20734" lon="5.98127">
        <ele>2201.56</ele>
        <time>2013-02-21T15:32:30Z</time>
      </trkpt>
      <trkpt lat="45.20736" lon="5.98119">
        <ele>2203.48</ele>
        <time>2013-02-21T15:32:43Z</time>
      </trkpt>
      <trkpt lat="45.20737" lon="5.98111">
        <ele>2205.4</ele>
        <time>2013-02-21T15:32:57Z</time>
      </trkpt>
      <trkpt lat="45.20739" lon="5.98102">
        <ele>2207.81</ele>
        <time>2013-02-21T15:33:09Z</time>
      </trkpt>
      <trkpt lat="45.20743" lon="5.98095">
        <ele>2210.21</ele>
        <time>2013-02-21T15:33:22Z</time>
      </trkpt>
      <trkpt lat="45.20746" lon="5.98093">
        <ele>2211.17</ele>
        <time>2013-02-21T15:33:37Z</time>
      </trkpt>
      <trkpt lat="45.20745" lon="5.98092">
        <ele>2212.13</ele>
        <time>2013-02-21T15:33:52Z</time>
      </trkpt>
      <trkpt lat="45.20739" lon="5.98093">
        <ele>2213.57</ele>
        <time>2013-02-21T15:34:04Z</time>
      </trkpt>
      <trkpt lat="45.20733" lon="5.98096">
        <ele>2215.98</ele>
        <time>2013-02-21T15:34:16Z</time>
      </trkpt>
      <trkpt lat="45.20727" lon="5.98099">
        <ele>2217.9</ele>
        <time>2013-02-21T15:34:28Z</time>
      </trkpt>
      <trkpt lat="45.20724" lon="5.98101">
        <ele>2219.34</ele>
        <time>2013-02-21T15:34:38Z</time>
      </trkpt>
      <trkpt lat="45.20721" lon="5.98103">
        <ele>2221.74</ele>
        <time>2013-02-21T15:34:51Z</time>
      </trkpt>
      <trkpt lat="45.2072" lon="5.98101">
        <ele>2222.22</ele>
        <time>2013-02-21T15:35:03Z</time>
      </trkpt>
      <trkpt lat="45.20721" lon="5.98095">
        <ele>2224.15</ele>
        <time>2013-02-21T15:35:15Z</time>
      </trkpt>
      <trkpt lat="45.20723" lon="5.98086">
        <ele>2226.55</ele>
        <time>2013-02-21T15:35:28Z</time>
      </trkpt>
      <trkpt lat="45.20726" lon="5.98084">
        <ele>2227.99</ele>
        <time>2013-02-21T15:35:40Z</time>
      </trkpt>
      <trkpt lat="45.20727" lon="5.98082">
        <ele>2229.92</ele>
        <time>2013-02-21T15:35:52Z</time>
      </trkpt>
      <trkpt lat="45.20723" lon="5.98084">
        <ele>2230.4</ele>
        <time>2013-02-21T15:36:08Z</time>
      </trkpt>
      <trkpt lat="45.20721" lon="5.98085">
        <ele>2231.36</ele>
        <time>2013-02-21T15:36:20Z</time>
      </trkpt>
      <trkpt lat="45.20718" lon="5.98086">
        <ele>2232.8</ele>
        <time>2013-02-21T15:36:35Z</time>
      </trkpt>
      <trkpt lat="45.20714" lon="5.98085">
        <ele>2234.24</ele>
        <time>2013-02-21T15:36:46Z</time>
      </trkpt>
      <trkpt lat="45.2071" lon="5.98089">
        <ele>2236.16</ele>
        <time>2013-02-21T15:37:00Z</time>
      </trkpt>
      <trkpt lat="45.20707" lon="5.98093">
        <ele>2238.57</ele>
        <time>2013-02-21T15:37:13Z</time>
      </trkpt>
      <trkpt lat="45.20704" lon="5.98097">
        <ele>2240.01</ele>
        <time>2013-02-21T15:37:24Z</time>
      </trkpt>
      <trkpt lat="45.20704" lon="5.98093">
        <ele>2241.45</ele>
        <time>2013-02-21T15:37:40Z</time>
      </trkpt>
      <trkpt lat="45.20703" lon="5.98084">
        <ele>2243.37</ele>
        <time>2013-02-21T15:37:53Z</time>
      </trkpt>
      <trkpt lat="45.20703" lon="5.9807">
        <ele>2246.74</ele>
        <time>2013-02-21T15:38:12Z</time>
      </trkpt>
      <trkpt lat="45.20707" lon="5.98063">
        <ele>2248.66</ele>
        <time>2013-02-21T15:38:23Z</time>
      </trkpt>
      <trkpt lat="45.20709" lon="5.98061">
        <ele>2250.1</ele>
        <time>2013-02-21T15:38:38Z</time>
      </trkpt>
      <trkpt lat="45.20704" lon="5.98062">
        <ele>2251.54</ele>
        <time>2013-02-21T15:38:54Z</time>
      </trkpt>
      <trkpt lat="45.20698" lon="5.98064">
        <ele>2253.47</ele>
        <time>2013-02-21T15:39:06Z</time>
      </trkpt>
      <trkpt lat="45.20694" lon="5.98071">
        <ele>2256.35</ele>
        <time>2013-02-21T15:39:20Z</time>
      </trkpt>
      <trkpt lat="45.20693" lon="5.98073">
        <ele>2256.83</ele>
        <time>2013-02-21T15:39:24Z</time>
      </trkpt>
      <trkpt lat="45.20693" lon="5.98073">
        <ele>2258.27</ele>
        <time>2013-02-21T15:39:39Z</time>
      </trkpt>
      <trkpt lat="45.20691" lon="5.98069">
        <ele>2259.72</ele>
        <time>2013-02-21T15:39:53Z</time>
      </trkpt>
      <trkpt lat="45.2069" lon="5.98061">
        <ele>2261.16</ele>
        <time>2013-02-21T15:40:07Z</time>
      </trkpt>
      <trkpt lat="45.2069" lon="5.98056">
        <ele>2263.08</ele>
        <time>2013-02-21T15:40:20Z</time>
      </trkpt>
      <trkpt lat="45.20691" lon="5.98051">
        <ele>2265</ele>
        <time>2013-02-21T15:40:40Z</time>
      </trkpt>
      <trkpt lat="45.20689" lon="5.9805">
        <ele>2265.96</ele>
        <time>2013-02-21T15:40:51Z</time>
      </trkpt>
      <trkpt lat="45.20685" lon="5.98051">
        <ele>2267.41</ele>
        <time>2013-02-21T15:41:00Z</time>
      </trkpt>
      <trkpt lat="45.20683" lon="5.9805">
        <ele>2269.33</ele>
        <time>2013-02-21T15:41:14Z</time>
      </trkpt>
      <trkpt lat="45.20683" lon="5.98046">
        <ele>2270.29</ele>
        <time>2013-02-21T15:41:31Z</time>
      </trkpt>
      <trkpt lat="45.20683" lon="5.98045">
        <ele>2270.29</ele>
        <time>2013-02-21T15:42:09Z</time>
      </trkpt>
      <trkpt lat="45.20683" lon="5.98045">
        <ele>2270.77</ele>
        <time>2013-02-21T15:42:46Z</time>
      </trkpt>
      <trkpt lat="45.20681" lon="5.98038">
        <ele>2272.21</ele>
        <time>2013-02-21T15:42:59Z</time>
      </trkpt>
      <trkpt lat="45.2068" lon="5.98033">
        <ele>2273.17</ele>
        <time>2013-02-21T15:43:08Z</time>
      </trkpt>
      <trkpt lat="45.20679" lon="5.98027">
        <ele>2275.1</ele>
        <time>2013-02-21T15:43:21Z</time>
      </trkpt>
      <trkpt lat="45.20675" lon="5.98022">
        <ele>2276.54</ele>
        <time>2013-02-21T15:43:32Z</time>
      </trkpt>
      <trkpt lat="45.20672" lon="5.98019">
        <ele>2277.5</ele>
        <time>2013-02-21T15:43:42Z</time>
      </trkpt>
      <trkpt lat="45.20669" lon="5.98017">
        <ele>2279.42</ele>
        <time>2013-02-21T15:43:57Z</time>
      </trkpt>
      <trkpt lat="45.20673" lon="5.98015">
        <ele>2280.38</ele>
        <time>2013-02-21T15:44:05Z</time>
      </trkpt>
      <trkpt lat="45.20675" lon="5.98016">
        <ele>2281.35</ele>
        <time>2013-02-21T15:44:18Z</time>
      </trkpt>
      <trkpt lat="45.20673" lon="5.98015">
        <ele>2281.35</ele>
        <time>2013-02-21T15:44:26Z</time>
      </trkpt>
      <trkpt lat="45.20669" lon="5.98012">
        <ele>2283.27</ele>
        <time>2013-02-21T15:44:38Z</time>
      </trkpt>
      <trkpt lat="45.20669" lon="5.98011">
        <ele>2284.71</ele>
        <time>2013-02-21T15:44:52Z</time>
      </trkpt>
      <trkpt lat="45.20673" lon="5.98007">
        <ele>2285.67</ele>
        <time>2013-02-21T15:45:02Z</time>
      </trkpt>
      <trkpt lat="45.20672" lon="5.98007">
        <ele>2286.15</ele>
        <time>2013-02-21T15:45:17Z</time>
      </trkpt>
      <trkpt lat="45.2067" lon="5.98006">
        <ele>2287.11</ele>
        <time>2013-02-21T15:45:28Z</time>
      </trkpt>
      <trkpt lat="45.20667" lon="5.98003">
        <ele>2288.56</ele>
        <time>2013-02-21T15:45:40Z</time>
      </trkpt>
      <trkpt lat="45.20668" lon="5.97997">
        <ele>2290.48</ele>
        <time>2013-02-21T15:45:51Z</time>
      </trkpt>
      <trkpt lat="45.20669" lon="5.97996">
        <ele>2290.96</ele>
        <time>2013-02-21T15:45:54Z</time>
      </trkpt>
      <trkpt lat="45.2067" lon="5.97994">
        <ele>2291.44</ele>
        <time>2013-02-21T15:46:08Z</time>
      </trkpt>
      <trkpt lat="45.20669" lon="5.97992">
        <ele>2290.96</ele>
        <time>2013-02-21T15:46:23Z</time>
      </trkpt>
      <trkpt lat="45.2067" lon="5.97991">
        <ele>2291.92</ele>
        <time>2013-02-21T15:47:00Z</time>
      </trkpt>
      <trkpt lat="45.20672" lon="5.9799">
        <ele>2292.88</ele>
        <time>2013-02-21T15:47:21Z</time>
      </trkpt>
      <trkpt lat="45.20677" lon="5.97992">
        <ele>2294.8</ele>
        <time>2013-02-21T15:47:37Z</time>
      </trkpt>
      <trkpt lat="45.2068" lon="5.97991">
        <ele>2297.69</ele>
        <time>2013-02-21T15:47:53Z</time>
      </trkpt>
      <trkpt lat="45.20682" lon="5.9799">
        <ele>2299.61</ele>
        <time>2013-02-21T15:48:07Z</time>
      </trkpt>
      <trkpt lat="45.20684" lon="5.97988">
        <ele>2302.01</ele>
        <time>2013-02-21T15:48:21Z</time>
      </trkpt>
      <trkpt lat="45.20685" lon="5.97987">
        <ele>2303.46</ele>
        <time>2013-02-21T15:48:44Z</time>
      </trkpt>
      <trkpt lat="45.20687" lon="5.97987">
        <ele>2304.9</ele>
        <time>2013-02-21T15:48:57Z</time>
      </trkpt>
      <trkpt lat="45.20689" lon="5.97987">
        <ele>2307.78</ele>
        <time>2013-02-21T15:49:20Z</time>
      </trkpt>
      <trkpt lat="45.20692" lon="5.97989">
        <ele>2310.19</ele>
        <time>2013-02-21T15:49:34Z</time>
      </trkpt>
      <trkpt lat="45.20696" lon="5.97992">
        <ele>2311.63</ele>
        <time>2013-02-21T15:49:49Z</time>
      </trkpt>
      <trkpt lat="45.20697" lon="5.97994">
        <ele>2311.63</ele>
        <time>2013-02-21T15:50:08Z</time>
      </trkpt>
      <trkpt lat="45.20695" lon="5.9799">
        <ele>2312.59</ele>
        <time>2013-02-21T15:50:22Z</time>
      </trkpt>
      <trkpt lat="45.20696" lon="5.97987">
        <ele>2314.51</ele>
        <time>2013-02-21T15:50:37Z</time>
      </trkpt>
      <trkpt lat="45.20697" lon="5.97987">
        <ele>2314.51</ele>
        <time>2013-02-21T15:51:06Z</time>
      </trkpt>
      <trkpt lat="45.20697" lon="5.97987">
        <ele>2314.99</ele>
        <time>2013-02-21T15:52:13Z</time>
      </trkpt>
      <trkpt lat="45.20697" lon="5.97989">
        <ele>2314.03</ele>
        <time>2013-02-21T15:53:22Z</time>
      </trkpt>
      <trkpt lat="45.20697" lon="5.97992">
        <ele>2311.63</ele>
        <time>2013-02-21T15:53:37Z</time>
      </trkpt>
      <trkpt lat="45.20697" lon="5.97992">
        <ele>2312.11</ele>
        <time>2013-02-21T15:53:51Z</time>
      </trkpt>
      <trkpt lat="45.20696" lon="5.97992">
        <ele>2311.15</ele>
        <time>2013-02-21T15:54:19Z</time>
      </trkpt>
      <trkpt lat="45.20697" lon="5.97992">
        <ele>2311.63</ele>
        <time>2013-02-21T15:54:51Z</time>
      </trkpt>
      <trkpt lat="45.20697" lon="5.97993">
        <ele>2311.63</ele>
        <time>2013-02-21T15:55:28Z</time>
      </trkpt>
      <trkpt lat="45.20697" lon="5.97994">
        <ele>2311.15</ele>
        <time>2013-02-21T15:55:49Z</time>
      </trkpt>
      <trkpt lat="45.20696" lon="5.97994">
        <ele>2310.67</ele>
        <time>2013-02-21T15:56:12Z</time>
      </trkpt>
      <trkpt lat="45.20696" lon="5.97993">
        <ele>2309.7</ele>
        <time>2013-02-21T15:57:13Z</time>
      </trkpt>
      <trkpt lat="45.20697" lon="5.97994">
        <ele>2310.19</ele>
        <time>2013-02-21T15:58:07Z</time>
      </trkpt>
      <trkpt lat="45.20699" lon="5.9799">
        <ele>2309.22</ele>
        <time>2013-02-21T15:58:22Z</time>
      </trkpt>
      <trkpt lat="45.20701" lon="5.97984">
        <ele>2307.3</ele>
        <time>2013-02-21T15:58:34Z</time>
      </trkpt>
      <trkpt lat="45.20703" lon="5.97985">
        <ele>2305.38</ele>
        <time>2013-02-21T15:58:40Z</time>
      </trkpt>
      <trkpt lat="45.20704" lon="5.97988">
        <ele>2304.42</ele>
        <time>2013-02-21T15:58:42Z</time>
      </trkpt>
      <trkpt lat="45.20705" lon="5.97992">
        <ele>2301.53</ele>
        <time>2013-02-21T15:58:46Z</time>
      </trkpt>
      <trkpt lat="45.20708" lon="5.9799">
        <ele>2300.57</ele>
        <time>2013-02-21T15:58:48Z</time>
      </trkpt>
      <trkpt lat="45.20709" lon="5.97994">
        <ele>2299.61</ele>
        <time>2013-02-21T15:58:50Z</time>
      </trkpt>
      <trkpt lat="45.2071" lon="5.97995">
        <ele>2296.73</ele>
        <time>2013-02-21T15:58:53Z</time>
      </trkpt>
      <trkpt lat="45.2071" lon="5.97995">
        <ele>2294.8</ele>
        <time>2013-02-21T15:58:56Z</time>
      </trkpt>
      <trkpt lat="45.20711" lon="5.97996">
        <ele>2293.84</ele>
        <time>2013-02-21T15:59:00Z</time>
      </trkpt>
      <trkpt lat="45.20716" lon="5.97993">
        <ele>2291.92</ele>
        <time>2013-02-21T15:59:03Z</time>
      </trkpt>
      <trkpt lat="45.20718" lon="5.97995">
        <ele>2290.96</ele>
        <time>2013-02-21T15:59:05Z</time>
      </trkpt>
      <trkpt lat="45.20718" lon="5.97995">
        <ele>2288.08</ele>
        <time>2013-02-21T15:59:08Z</time>
      </trkpt>
      <trkpt lat="45.20718" lon="5.97995">
        <ele>2286.63</ele>
        <time>2013-02-21T15:59:11Z</time>
      </trkpt>
      <trkpt lat="45.20718" lon="5.97995">
        <ele>2286.63</ele>
        <time>2013-02-21T15:59:16Z</time>
      </trkpt>
      <trkpt lat="45.20722" lon="5.97987">
        <ele>2284.23</ele>
        <time>2013-02-21T15:59:25Z</time>
      </trkpt>
      <trkpt lat="45.20722" lon="5.97982">
        <ele>2281.83</ele>
        <time>2013-02-21T15:59:32Z</time>
      </trkpt>
      <trkpt lat="45.20723" lon="5.97979">
        <ele>2281.35</ele>
        <time>2013-02-21T15:59:35Z</time>
      </trkpt>
      <trkpt lat="45.20726" lon="5.97981">
        <ele>2280.38</ele>
        <time>2013-02-21T15:59:38Z</time>
      </trkpt>
      <trkpt lat="45.20725" lon="5.97981">
        <ele>2278.94</ele>
        <time>2013-02-21T15:59:41Z</time>
      </trkpt>
      <trkpt lat="45.20726" lon="5.9798">
        <ele>2277.5</ele>
        <time>2013-02-21T15:59:44Z</time>
      </trkpt>
      <trkpt lat="45.20733" lon="5.97973">
        <ele>2274.14</ele>
        <time>2013-02-21T15:59:49Z</time>
      </trkpt>
      <trkpt lat="45.20735" lon="5.97974">
        <ele>2272.69</ele>
        <time>2013-02-21T16:00:00Z</time>
      </trkpt>
      <trkpt lat="45.20741" lon="5.97969">
        <ele>2271.73</ele>
        <time>2013-02-21T16:00:05Z</time>
      </trkpt>
      <trkpt lat="45.20747" lon="5.97977">
        <ele>2268.85</ele>
        <time>2013-02-21T16:00:08Z</time>
      </trkpt>
      <trkpt lat="45.20749" lon="5.9798">
        <ele>2265</ele>
        <time>2013-02-21T16:00:11Z</time>
      </trkpt>
      <trkpt lat="45.20749" lon="5.97981">
        <ele>2261.16</ele>
        <time>2013-02-21T16:00:13Z</time>
      </trkpt>
      <trkpt lat="45.2075" lon="5.9798">
        <ele>2257.79</ele>
        <time>2013-02-21T16:00:16Z</time>
      </trkpt>
      <trkpt lat="45.2075" lon="5.9798">
        <ele>2257.31</ele>
        <time>2013-02-21T16:00:17Z</time>
      </trkpt>
      <trkpt lat="45.2075" lon="5.97981">
        <ele>2257.31</ele>
        <time>2013-02-21T16:00:24Z</time>
      </trkpt>
      <trkpt lat="45.20754" lon="5.97975">
        <ele>2256.35</ele>
        <time>2013-02-21T16:00:29Z</time>
      </trkpt>
      <trkpt lat="45.2076" lon="5.97977">
        <ele>2254.91</ele>
        <time>2013-02-21T16:00:32Z</time>
      </trkpt>
      <trkpt lat="45.20765" lon="5.97982">
        <ele>2250.58</ele>
        <time>2013-02-21T16:00:34Z</time>
      </trkpt>
      <trkpt lat="45.2077" lon="5.97982">
        <ele>2244.82</ele>
        <time>2013-02-21T16:00:37Z</time>
      </trkpt>
      <trkpt lat="45.2077" lon="5.97987">
        <ele>2244.82</ele>
        <time>2013-02-21T16:00:38Z</time>
      </trkpt>
      <trkpt lat="45.20769" lon="5.9799">
        <ele>2241.45</ele>
        <time>2013-02-21T16:00:39Z</time>
      </trkpt>
      <trkpt lat="45.20769" lon="5.9799">
        <ele>2238.57</ele>
        <time>2013-02-21T16:00:41Z</time>
      </trkpt>
      <trkpt lat="45.20769" lon="5.9799">
        <ele>2235.68</ele>
        <time>2013-02-21T16:00:43Z</time>
      </trkpt>
      <trkpt lat="45.20769" lon="5.9799">
        <ele>2235.68</ele>
        <time>2013-02-21T16:00:44Z</time>
      </trkpt>
      <trkpt lat="45.20769" lon="5.9799">
        <ele>2234.24</ele>
        <time>2013-02-21T16:00:55Z</time>
      </trkpt>
      <trkpt lat="45.20768" lon="5.97997">
        <ele>2233.76</ele>
        <time>2013-02-21T16:01:00Z</time>
      </trkpt>
      <trkpt lat="45.20771" lon="5.98003">
        <ele>2232.32</ele>
        <time>2013-02-21T16:01:03Z</time>
      </trkpt>
      <trkpt lat="45.20777" lon="5.97996">
        <ele>2228.95</ele>
        <time>2013-02-21T16:01:06Z</time>
      </trkpt>
      <trkpt lat="45.20779" lon="5.98001">
        <ele>2221.74</ele>
        <time>2013-02-21T16:01:09Z</time>
      </trkpt>
      <trkpt lat="45.20788" lon="5.98006">
        <ele>2214.05</ele>
        <time>2013-02-21T16:01:12Z</time>
      </trkpt>
      <trkpt lat="45.20792" lon="5.98012">
        <ele>2209.25</ele>
        <time>2013-02-21T16:01:14Z</time>
      </trkpt>
      <trkpt lat="45.20792" lon="5.98013">
        <ele>2205.88</ele>
        <time>2013-02-21T16:01:17Z</time>
      </trkpt>
      <trkpt lat="45.20793" lon="5.98014">
        <ele>2204.92</ele>
        <time>2013-02-21T16:01:29Z</time>
      </trkpt>
      <trkpt lat="45.20797" lon="5.97992">
        <ele>2201.08</ele>
        <time>2013-02-21T16:01:34Z</time>
      </trkpt>
      <trkpt lat="45.20798" lon="5.97991">
        <ele>2198.67</ele>
        <time>2013-02-21T16:01:36Z</time>
      </trkpt>
      <trkpt lat="45.20801" lon="5.97993">
        <ele>2195.31</ele>
        <time>2013-02-21T16:01:39Z</time>
      </trkpt>
      <trkpt lat="45.20807" lon="5.98004">
        <ele>2191.94</ele>
        <time>2013-02-21T16:01:42Z</time>
      </trkpt>
      <trkpt lat="45.20809" lon="5.98011">
        <ele>2190.02</ele>
        <time>2013-02-21T16:01:44Z</time>
      </trkpt>
      <trkpt lat="45.20812" lon="5.98017">
        <ele>2187.14</ele>
        <time>2013-02-21T16:01:46Z</time>
      </trkpt>
      <trkpt lat="45.20813" lon="5.98019">
        <ele>2187.14</ele>
        <time>2013-02-21T16:01:47Z</time>
      </trkpt>
      <trkpt lat="45.20813" lon="5.9802">
        <ele>2185.69</ele>
        <time>2013-02-21T16:01:50Z</time>
      </trkpt>
      <trkpt lat="45.2082" lon="5.98031">
        <ele>2182.33</ele>
        <time>2013-02-21T16:02:05Z</time>
      </trkpt>
      <trkpt lat="45.20822" lon="5.98034">
        <ele>2182.33</ele>
        <time>2013-02-21T16:02:06Z</time>
      </trkpt>
      <trkpt lat="45.20825" lon="5.98042">
        <ele>2178.48</ele>
        <time>2013-02-21T16:02:09Z</time>
      </trkpt>
      <trkpt lat="45.20826" lon="5.98044">
        <ele>2178.48</ele>
        <time>2013-02-21T16:02:10Z</time>
      </trkpt>
      <trkpt lat="45.2083" lon="5.98052">
        <ele>2176.08</ele>
        <time>2013-02-21T16:02:13Z</time>
      </trkpt>
      <trkpt lat="45.20835" lon="5.98062">
        <ele>2172.24</ele>
        <time>2013-02-21T16:02:16Z</time>
      </trkpt>
      <trkpt lat="45.20836" lon="5.98064">
        <ele>2172.24</ele>
        <time>2013-02-21T16:02:17Z</time>
      </trkpt>
      <trkpt lat="45.20842" lon="5.9807">
        <ele>2169.35</ele>
        <time>2013-02-21T16:02:20Z</time>
      </trkpt>
      <trkpt lat="45.20846" lon="5.98072">
        <ele>2166.47</ele>
        <time>2013-02-21T16:02:22Z</time>
      </trkpt>
      <trkpt lat="45.20849" lon="5.98075">
        <ele>2166.47</ele>
        <time>2013-02-21T16:02:23Z</time>
      </trkpt>
      <trkpt lat="45.20858" lon="5.9808">
        <ele>2161.18</ele>
        <time>2013-02-21T16:02:25Z</time>
      </trkpt>
      <trkpt lat="45.20866" lon="5.98088">
        <ele>2155.41</ele>
        <time>2013-02-21T16:02:27Z</time>
      </trkpt>
      <trkpt lat="45.20873" lon="5.98094">
        <ele>2150.13</ele>
        <time>2013-02-21T16:02:29Z</time>
      </trkpt>
      <trkpt lat="45.20876" lon="5.98096">
        <ele>2148.68</ele>
        <time>2013-02-21T16:02:31Z</time>
      </trkpt>
      <trkpt lat="45.20885" lon="5.981">
        <ele>2145.32</ele>
        <time>2013-02-21T16:02:36Z</time>
      </trkpt>
      <trkpt lat="45.20891" lon="5.98103">
        <ele>2143.88</ele>
        <time>2013-02-21T16:02:39Z</time>
      </trkpt>
      <trkpt lat="45.20896" lon="5.98106">
        <ele>2142.44</ele>
        <time>2013-02-21T16:02:42Z</time>
      </trkpt>
      <trkpt lat="45.20899" lon="5.98107">
        <ele>2140.99</ele>
        <time>2013-02-21T16:02:45Z</time>
      </trkpt>
      <trkpt lat="45.2092" lon="5.98115">
        <ele>2138.59</ele>
        <time>2013-02-21T16:02:54Z</time>
      </trkpt>
      <trkpt lat="45.20925" lon="5.98118">
        <ele>2137.63</ele>
        <time>2013-02-21T16:03:05Z</time>
      </trkpt>
      <trkpt lat="45.20925" lon="5.98118">
        <ele>2137.63</ele>
        <time>2013-02-21T16:03:06Z</time>
      </trkpt>
      <trkpt lat="45.20925" lon="5.98126">
        <ele>2135.71</ele>
        <time>2013-02-21T16:03:16Z</time>
      </trkpt>
      <trkpt lat="45.20922" lon="5.98143">
        <ele>2133.78</ele>
        <time>2013-02-21T16:03:27Z</time>
      </trkpt>
      <trkpt lat="45.20925" lon="5.98144">
        <ele>2132.34</ele>
        <time>2013-02-21T16:03:31Z</time>
      </trkpt>
      <trkpt lat="45.20925" lon="5.98151">
        <ele>2130.42</ele>
        <time>2013-02-21T16:03:34Z</time>
      </trkpt>
      <trkpt lat="45.20926" lon="5.98158">
        <ele>2128.02</ele>
        <time>2013-02-21T16:03:37Z</time>
      </trkpt>
      <trkpt lat="45.2093" lon="5.98164">
        <ele>2125.13</ele>
        <time>2013-02-21T16:03:40Z</time>
      </trkpt>
      <trkpt lat="45.20931" lon="5.98165">
        <ele>2122.25</ele>
        <time>2013-02-21T16:03:43Z</time>
      </trkpt>
      <trkpt lat="45.20932" lon="5.98166">
        <ele>2118.88</ele>
        <time>2013-02-21T16:03:47Z</time>
      </trkpt>
      <trkpt lat="45.20933" lon="5.98167">
        <ele>2117.44</ele>
        <time>2013-02-21T16:03:53Z</time>
      </trkpt>
      <trkpt lat="45.20933" lon="5.98163">
        <ele>2115.52</ele>
        <time>2013-02-21T16:03:58Z</time>
      </trkpt>
      <trkpt lat="45.20937" lon="5.98164">
        <ele>2114.08</ele>
        <time>2013-02-21T16:04:01Z</time>
      </trkpt>
      <trkpt lat="45.20938" lon="5.98165">
        <ele>2112.15</ele>
        <time>2013-02-21T16:04:04Z</time>
      </trkpt>
      <trkpt lat="45.2094" lon="5.98168">
        <ele>2109.75</ele>
        <time>2013-02-21T16:04:17Z</time>
      </trkpt>
      <trkpt lat="45.20942" lon="5.98164">
        <ele>2106.87</ele>
        <time>2013-02-21T16:04:29Z</time>
      </trkpt>
      <trkpt lat="45.20945" lon="5.98166">
        <ele>2105.42</ele>
        <time>2013-02-21T16:04:33Z</time>
      </trkpt>
      <trkpt lat="45.20947" lon="5.98167">
        <ele>2102.06</ele>
        <time>2013-02-21T16:04:42Z</time>
      </trkpt>
      <trkpt lat="45.20948" lon="5.98167">
        <ele>2101.1</ele>
        <time>2013-02-21T16:04:52Z</time>
      </trkpt>
      <trkpt lat="45.20948" lon="5.98167">
        <ele>2100.62</ele>
        <time>2013-02-21T16:04:53Z</time>
      </trkpt>
      <trkpt lat="45.2095" lon="5.98164">
        <ele>2098.21</ele>
        <time>2013-02-21T16:05:04Z</time>
      </trkpt>
      <trkpt lat="45.2095" lon="5.98163">
        <ele>2097.25</ele>
        <time>2013-02-21T16:05:09Z</time>
      </trkpt>
      <trkpt lat="45.20952" lon="5.9816">
        <ele>2095.81</ele>
        <time>2013-02-21T16:05:19Z</time>
      </trkpt>
      <trkpt lat="45.20954" lon="5.98164">
        <ele>2092.93</ele>
        <time>2013-02-21T16:05:30Z</time>
      </trkpt>
      <trkpt lat="45.20956" lon="5.98166">
        <ele>2090.52</ele>
        <time>2013-02-21T16:05:45Z</time>
      </trkpt>
      <trkpt lat="45.20957" lon="5.98168">
        <ele>2090.52</ele>
        <time>2013-02-21T16:06:01Z</time>
      </trkpt>
      <trkpt lat="45.20958" lon="5.98169">
        <ele>2090.52</ele>
        <time>2013-02-21T16:06:11Z</time>
      </trkpt>
      <trkpt lat="45.20959" lon="5.98171">
        <ele>2089.08</ele>
        <time>2013-02-21T16:06:18Z</time>
      </trkpt>
      <trkpt lat="45.2096" lon="5.98175">
        <ele>2086.68</ele>
        <time>2013-02-21T16:06:30Z</time>
      </trkpt>
      <trkpt lat="45.2096" lon="5.98175">
        <ele>2086.68</ele>
        <time>2013-02-21T16:06:31Z</time>
      </trkpt>
      <trkpt lat="45.20961" lon="5.98178">
        <ele>2085.24</ele>
        <time>2013-02-21T16:06:41Z</time>
      </trkpt>
      <trkpt lat="45.20964" lon="5.98181">
        <ele>2083.31</ele>
        <time>2013-02-21T16:06:53Z</time>
      </trkpt>
      <trkpt lat="45.20965" lon="5.98183">
        <ele>2082.83</ele>
        <time>2013-02-21T16:07:14Z</time>
      </trkpt>
      <trkpt lat="45.20966" lon="5.98183">
        <ele>2080.91</ele>
        <time>2013-02-21T16:07:22Z</time>
      </trkpt>
      <trkpt lat="45.20968" lon="5.98181">
        <ele>2078.03</ele>
        <time>2013-02-21T16:07:33Z</time>
      </trkpt>
      <trkpt lat="45.20972" lon="5.98181">
        <ele>2076.1</ele>
        <time>2013-02-21T16:07:38Z</time>
      </trkpt>
      <trkpt lat="45.20974" lon="5.98181">
        <ele>2074.18</ele>
        <time>2013-02-21T16:07:41Z</time>
      </trkpt>
      <trkpt lat="45.20974" lon="5.98178">
        <ele>2071.3</ele>
        <time>2013-02-21T16:07:50Z</time>
      </trkpt>
      <trkpt lat="45.20974" lon="5.98177">
        <ele>2071.3</ele>
        <time>2013-02-21T16:07:51Z</time>
      </trkpt>
      <trkpt lat="45.20978" lon="5.98177">
        <ele>2069.38</ele>
        <time>2013-02-21T16:07:54Z</time>
      </trkpt>
      <trkpt lat="45.20978" lon="5.98177">
        <ele>2067.93</ele>
        <time>2013-02-21T16:07:57Z</time>
      </trkpt>
      <trkpt lat="45.20981" lon="5.98177">
        <ele>2065.53</ele>
        <time>2013-02-21T16:08:08Z</time>
      </trkpt>
      <trkpt lat="45.20976" lon="5.98168">
        <ele>2062.65</ele>
        <time>2013-02-21T16:08:15Z</time>
      </trkpt>
      <trkpt lat="45.20976" lon="5.98168">
        <ele>2062.65</ele>
        <time>2013-02-21T16:08:16Z</time>
      </trkpt>
      <trkpt lat="45.20976" lon="5.98167">
        <ele>2061.2</ele>
        <time>2013-02-21T16:08:19Z</time>
      </trkpt>
      <trkpt lat="45.20976" lon="5.98166">
        <ele>2061.2</ele>
        <time>2013-02-21T16:08:20Z</time>
      </trkpt>
      <trkpt lat="45.20975" lon="5.98162">
        <ele>2060.72</ele>
        <time>2013-02-21T16:08:23Z</time>
      </trkpt>
      <trkpt lat="45.2098" lon="5.98161">
        <ele>2059.28</ele>
        <time>2013-02-21T16:08:27Z</time>
      </trkpt>
      <trkpt lat="45.2098" lon="5.98157">
        <ele>2056.4</ele>
        <time>2013-02-21T16:08:30Z</time>
      </trkpt>
      <trkpt lat="45.20981" lon="5.98149">
        <ele>2054.47</ele>
        <time>2013-02-21T16:08:34Z</time>
      </trkpt>
      <trkpt lat="45.20982" lon="5.9815">
        <ele>2053.03</ele>
        <time>2013-02-21T16:08:36Z</time>
      </trkpt>
      <trkpt lat="45.20983" lon="5.98146">
        <ele>2050.15</ele>
        <time>2013-02-21T16:08:41Z</time>
      </trkpt>
      <trkpt lat="45.20984" lon="5.98145">
        <ele>2048.71</ele>
        <time>2013-02-21T16:08:47Z</time>
      </trkpt>
      <trkpt lat="45.20986" lon="5.98146">
        <ele>2045.82</ele>
        <time>2013-02-21T16:08:57Z</time>
      </trkpt>
      <trkpt lat="45.20986" lon="5.98146">
        <ele>2045.82</ele>
        <time>2013-02-21T16:08:58Z</time>
      </trkpt>
      <trkpt lat="45.20987" lon="5.98139">
        <ele>2043.42</ele>
        <time>2013-02-21T16:09:06Z</time>
      </trkpt>
      <trkpt lat="45.20991" lon="5.98142">
        <ele>2041.5</ele>
        <time>2013-02-21T16:09:11Z</time>
      </trkpt>
      <trkpt lat="45.20991" lon="5.98141">
        <ele>2040.05</ele>
        <time>2013-02-21T16:09:14Z</time>
      </trkpt>
      <trkpt lat="45.20992" lon="5.98141">
        <ele>2039.09</ele>
        <time>2013-02-21T16:09:15Z</time>
      </trkpt>
      <trkpt lat="45.20994" lon="5.98136">
        <ele>2036.21</ele>
        <time>2013-02-21T16:09:21Z</time>
      </trkpt>
      <trkpt lat="45.20994" lon="5.98136">
        <ele>2033.81</ele>
        <time>2013-02-21T16:09:24Z</time>
      </trkpt>
      <trkpt lat="45.20996" lon="5.98135">
        <ele>2032.36</ele>
        <time>2013-02-21T16:09:27Z</time>
      </trkpt>
      <trkpt lat="45.21" lon="5.98137">
        <ele>2030.44</ele>
        <time>2013-02-21T16:09:30Z</time>
      </trkpt>
      <trkpt lat="45.20996" lon="5.98138">
        <ele>2028.04</ele>
        <time>2013-02-21T16:09:33Z</time>
      </trkpt>
      <trkpt lat="45.20996" lon="5.98137">
        <ele>2026.12</ele>
        <time>2013-02-21T16:09:36Z</time>
      </trkpt>
      <trkpt lat="45.21001" lon="5.98137">
        <ele>2025.64</ele>
        <time>2013-02-21T16:10:12Z</time>
      </trkpt>
      <trkpt lat="45.21005" lon="5.98138">
        <ele>2021.79</ele>
        <time>2013-02-21T16:10:43Z</time>
      </trkpt>
      <trkpt lat="45.21006" lon="5.98138">
        <ele>2018.91</ele>
        <time>2013-02-21T16:10:47Z</time>
      </trkpt>
      <trkpt lat="45.21009" lon="5.98142">
        <ele>2017.46</ele>
        <time>2013-02-21T16:10:51Z</time>
      </trkpt>
      <trkpt lat="45.21011" lon="5.98141">
        <ele>2015.54</ele>
        <time>2013-02-21T16:10:54Z</time>
      </trkpt>
      <trkpt lat="45.21014" lon="5.98146">
        <ele>2012.66</ele>
        <time>2013-02-21T16:10:58Z</time>
      </trkpt>
      <trkpt lat="45.21016" lon="5.98145">
        <ele>2009.77</ele>
        <time>2013-02-21T16:11:05Z</time>
      </trkpt>
      <trkpt lat="45.21017" lon="5.98146">
        <ele>2008.81</ele>
        <time>2013-02-21T16:11:06Z</time>
      </trkpt>
      <trkpt lat="45.21018" lon="5.98149">
        <ele>2007.85</ele>
        <time>2013-02-21T16:11:08Z</time>
      </trkpt>
      <trkpt lat="45.2102" lon="5.98147">
        <ele>2005.93</ele>
        <time>2013-02-21T16:11:11Z</time>
      </trkpt>
      <trkpt lat="45.21021" lon="5.98144">
        <ele>2004.49</ele>
        <time>2013-02-21T16:11:14Z</time>
      </trkpt>
      <trkpt lat="45.21025" lon="5.98144">
        <ele>2002.56</ele>
        <time>2013-02-21T16:11:21Z</time>
      </trkpt>
      <trkpt lat="45.21027" lon="5.98144">
        <ele>2000.64</ele>
        <time>2013-02-21T16:11:24Z</time>
      </trkpt>
      <trkpt lat="45.21027" lon="5.98141">
        <ele>1999.2</ele>
        <time>2013-02-21T16:11:26Z</time>
      </trkpt>
      <trkpt lat="45.21031" lon="5.98136">
        <ele>1995.35</ele>
        <time>2013-02-21T16:11:39Z</time>
      </trkpt>
      <trkpt lat="45.21032" lon="5.98137">
        <ele>1991.99</ele>
        <time>2013-02-21T16:11:48Z</time>
      </trkpt>
      <trkpt lat="45.21034" lon="5.98138">
        <ele>1991.51</ele>
        <time>2013-02-21T16:11:52Z</time>
      </trkpt>
      <trkpt lat="45.21038" lon="5.98143">
        <ele>1990.07</ele>
        <time>2013-02-21T16:11:57Z</time>
      </trkpt>
      <trkpt lat="45.21038" lon="5.98142">
        <ele>1988.62</ele>
        <time>2013-02-21T16:11:59Z</time>
      </trkpt>
      <trkpt lat="45.21041" lon="5.98141">
        <ele>1988.14</ele>
        <time>2013-02-21T16:12:01Z</time>
      </trkpt>
      <trkpt lat="45.21044" lon="5.98141">
        <ele>1985.26</ele>
        <time>2013-02-21T16:12:07Z</time>
      </trkpt>
      <trkpt lat="45.21042" lon="5.9814">
        <ele>1983.82</ele>
        <time>2013-02-21T16:12:10Z</time>
      </trkpt>
      <trkpt lat="45.2104" lon="5.98138">
        <ele>1982.38</ele>
        <time>2013-02-21T16:12:16Z</time>
      </trkpt>
      <trkpt lat="45.21047" lon="5.98142">
        <ele>1978.53</ele>
        <time>2013-02-21T16:12:26Z</time>
      </trkpt>
      <trkpt lat="45.21048" lon="5.98143">
        <ele>1978.53</ele>
        <time>2013-02-21T16:12:27Z</time>
      </trkpt>
      <trkpt lat="45.2105" lon="5.98145">
        <ele>1975.65</ele>
        <time>2013-02-21T16:12:42Z</time>
      </trkpt>
      <trkpt lat="45.2105" lon="5.9815">
        <ele>1972.76</ele>
        <time>2013-02-21T16:13:00Z</time>
      </trkpt>
      <trkpt lat="45.21051" lon="5.98144">
        <ele>1969.88</ele>
        <time>2013-02-21T16:13:14Z</time>
      </trkpt>
      <trkpt lat="45.21054" lon="5.98142">
        <ele>1966.51</ele>
        <time>2013-02-21T16:13:26Z</time>
      </trkpt>
      <trkpt lat="45.21061" lon="5.98146">
        <ele>1963.63</ele>
        <time>2013-02-21T16:13:49Z</time>
      </trkpt>
      <trkpt lat="45.21063" lon="5.98145">
        <ele>1963.15</ele>
        <time>2013-02-21T16:13:51Z</time>
      </trkpt>
      <trkpt lat="45.21066" lon="5.9814">
        <ele>1961.23</ele>
        <time>2013-02-21T16:13:58Z</time>
      </trkpt>
      <trkpt lat="45.2107" lon="5.98145">
        <ele>1958.82</ele>
        <time>2013-02-21T16:14:02Z</time>
      </trkpt>
      <trkpt lat="45.21071" lon="5.98145">
        <ele>1956.9</ele>
        <time>2013-02-21T16:14:04Z</time>
      </trkpt>
      <trkpt lat="45.21071" lon="5.9814">
        <ele>1954.5</ele>
        <time>2013-02-21T16:14:08Z</time>
      </trkpt>
      <trkpt lat="45.21072" lon="5.98139">
        <ele>1953.54</ele>
        <time>2013-02-21T16:14:09Z</time>
      </trkpt>
      <trkpt lat="45.21074" lon="5.9814">
        <ele>1951.13</ele>
        <time>2013-02-21T16:14:12Z</time>
      </trkpt>
      <trkpt lat="45.21078" lon="5.98137">
        <ele>1948.25</ele>
        <time>2013-02-21T16:14:15Z</time>
      </trkpt>
      <trkpt lat="45.21078" lon="5.98136">
        <ele>1944.88</ele>
        <time>2013-02-21T16:14:17Z</time>
      </trkpt>
      <trkpt lat="45.21079" lon="5.98136">
        <ele>1944.88</ele>
        <time>2013-02-21T16:14:18Z</time>
      </trkpt>
      <trkpt lat="45.2108" lon="5.98136">
        <ele>1942.96</ele>
        <time>2013-02-21T16:14:21Z</time>
      </trkpt>
      <trkpt lat="45.21084" lon="5.98125">
        <ele>1939.6</ele>
        <time>2013-02-21T16:14:32Z</time>
      </trkpt>
      <trkpt lat="45.21084" lon="5.98124">
        <ele>1938.64</ele>
        <time>2013-02-21T16:14:34Z</time>
      </trkpt>
      <trkpt lat="45.21086" lon="5.98122">
        <ele>1937.19</ele>
        <time>2013-02-21T16:14:37Z</time>
      </trkpt>
      <trkpt lat="45.21091" lon="5.98126">
        <ele>1934.79</ele>
        <time>2013-02-21T16:14:41Z</time>
      </trkpt>
      <trkpt lat="45.21095" lon="5.98129">
        <ele>1931.43</ele>
        <time>2013-02-21T16:14:43Z</time>
      </trkpt>
      <trkpt lat="45.21096" lon="5.98133">
        <ele>1931.43</ele>
        <time>2013-02-21T16:14:44Z</time>
      </trkpt>
      <trkpt lat="45.21096" lon="5.98136">
        <ele>1926.14</ele>
        <time>2013-02-21T16:14:46Z</time>
      </trkpt>
      <trkpt lat="45.21096" lon="5.98136">
        <ele>1926.14</ele>
        <time>2013-02-21T16:14:47Z</time>
      </trkpt>
      <trkpt lat="45.21097" lon="5.98136">
        <ele>1922.29</ele>
        <time>2013-02-21T16:14:49Z</time>
      </trkpt>
      <trkpt lat="45.21096" lon="5.98136">
        <ele>1922.29</ele>
        <time>2013-02-21T16:14:50Z</time>
      </trkpt>
      <trkpt lat="45.21097" lon="5.9814">
        <ele>1920.85</ele>
        <time>2013-02-21T16:14:54Z</time>
      </trkpt>
      <trkpt lat="45.21102" lon="5.98143">
        <ele>1918.93</ele>
        <time>2013-02-21T16:14:57Z</time>
      </trkpt>
      <trkpt lat="45.21106" lon="5.98148">
        <ele>1917.49</ele>
        <time>2013-02-21T16:14:59Z</time>
      </trkpt>
      <trkpt lat="45.21109" lon="5.98155">
        <ele>1911.72</ele>
        <time>2013-02-21T16:15:01Z</time>
      </trkpt>
      <trkpt lat="45.2111" lon="5.98157">
        <ele>1911.72</ele>
        <time>2013-02-21T16:15:02Z</time>
      </trkpt>
      <trkpt lat="45.21113" lon="5.98159">
        <ele>1908.83</ele>
        <time>2013-02-21T16:15:03Z</time>
      </trkpt>
      <trkpt lat="45.21114" lon="5.98151">
        <ele>1904.51</ele>
        <time>2013-02-21T16:15:06Z</time>
      </trkpt>
      <trkpt lat="45.21114" lon="5.98149">
        <ele>1903.55</ele>
        <time>2013-02-21T16:15:07Z</time>
      </trkpt>
      <trkpt lat="45.21117" lon="5.98149">
        <ele>1901.63</ele>
        <time>2013-02-21T16:15:09Z</time>
      </trkpt>
      <trkpt lat="45.21118" lon="5.98144">
        <ele>1896.82</ele>
        <time>2013-02-21T16:15:11Z</time>
      </trkpt>
      <trkpt lat="45.21118" lon="5.98144">
        <ele>1896.82</ele>
        <time>2013-02-21T16:15:12Z</time>
      </trkpt>
      <trkpt lat="45.2112" lon="5.98145">
        <ele>1892.97</ele>
        <time>2013-02-21T16:15:14Z</time>
      </trkpt>
      <trkpt lat="45.2112" lon="5.98145">
        <ele>1891.53</ele>
        <time>2013-02-21T16:15:16Z</time>
      </trkpt>
      <trkpt lat="45.2112" lon="5.98146">
        <ele>1891.53</ele>
        <time>2013-02-21T16:15:32Z</time>
      </trkpt>
      <trkpt lat="45.21126" lon="5.9815">
        <ele>1890.57</ele>
        <time>2013-02-21T16:15:34Z</time>
      </trkpt>
      <trkpt lat="45.21132" lon="5.98143">
        <ele>1887.21</ele>
        <time>2013-02-21T16:15:37Z</time>
      </trkpt>
      <trkpt lat="45.21135" lon="5.98137">
        <ele>1882.4</ele>
        <time>2013-02-21T16:15:39Z</time>
      </trkpt>
      <trkpt lat="45.2114" lon="5.98138">
        <ele>1877.59</ele>
        <time>2013-02-21T16:15:41Z</time>
      </trkpt>
      <trkpt lat="45.2114" lon="5.98136">
        <ele>1875.67</ele>
        <time>2013-02-21T16:15:42Z</time>
      </trkpt>
      <trkpt lat="45.2114" lon="5.98125">
        <ele>1869.42</ele>
        <time>2013-02-21T16:15:45Z</time>
      </trkpt>
      <trkpt lat="45.21141" lon="5.98119">
        <ele>1866.54</ele>
        <time>2013-02-21T16:15:48Z</time>
      </trkpt>
      <trkpt lat="45.2114" lon="5.9812">
        <ele>1865.58</ele>
        <time>2013-02-21T16:15:55Z</time>
      </trkpt>
      <trkpt lat="45.21146" lon="5.98123">
        <ele>1864.13</ele>
        <time>2013-02-21T16:15:58Z</time>
      </trkpt>
      <trkpt lat="45.21154" lon="5.98122">
        <ele>1859.33</ele>
        <time>2013-02-21T16:16:01Z</time>
      </trkpt>
      <trkpt lat="45.21158" lon="5.98123">
        <ele>1854.04</ele>
        <time>2013-02-21T16:16:03Z</time>
      </trkpt>
      <trkpt lat="45.21161" lon="5.98125">
        <ele>1850.19</ele>
        <time>2013-02-21T16:16:04Z</time>
      </trkpt>
      <trkpt lat="45.21165" lon="5.98127">
        <ele>1847.31</ele>
        <time>2013-02-21T16:16:05Z</time>
      </trkpt>
      <trkpt lat="45.21177" lon="5.98132">
        <ele>1841.06</ele>
        <time>2013-02-21T16:16:08Z</time>
      </trkpt>
      <trkpt lat="45.21178" lon="5.98135">
        <ele>1837.7</ele>
        <time>2013-02-21T16:16:09Z</time>
      </trkpt>
      <trkpt lat="45.21183" lon="5.98141">
        <ele>1832.89</ele>
        <time>2013-02-21T16:16:11Z</time>
      </trkpt>
      <trkpt lat="45.2119" lon="5.98149">
        <ele>1827.6</ele>
        <time>2013-02-21T16:16:14Z</time>
      </trkpt>
      <trkpt lat="45.21196" lon="5.98144">
        <ele>1823.28</ele>
        <time>2013-02-21T16:16:17Z</time>
      </trkpt>
      <trkpt lat="45.21199" lon="5.9814">
        <ele>1819.43</ele>
        <time>2013-02-21T16:16:19Z</time>
      </trkpt>
      <trkpt lat="45.212" lon="5.98139">
        <ele>1816.55</ele>
        <time>2013-02-21T16:16:23Z</time>
      </trkpt>
      <trkpt lat="45.212" lon="5.98138">
        <ele>1816.07</ele>
        <time>2013-02-21T16:16:29Z</time>
      </trkpt>
      <trkpt lat="45.212" lon="5.98153">
        <ele>1813.18</ele>
        <time>2013-02-21T16:16:34Z</time>
      </trkpt>
      <trkpt lat="45.212" lon="5.98156">
        <ele>1813.18</ele>
        <time>2013-02-21T16:16:35Z</time>
      </trkpt>
      <trkpt lat="45.21199" lon="5.98159">
        <ele>1810.3</ele>
        <time>2013-02-21T16:16:37Z</time>
      </trkpt>
      <trkpt lat="45.21206" lon="5.98163">
        <ele>1806.45</ele>
        <time>2013-02-21T16:16:41Z</time>
      </trkpt>
      <trkpt lat="45.21208" lon="5.98165">
        <ele>1806.45</ele>
        <time>2013-02-21T16:16:42Z</time>
      </trkpt>
      <trkpt lat="45.21214" lon="5.98159">
        <ele>1799.24</ele>
        <time>2013-02-21T16:16:45Z</time>
      </trkpt>
      <trkpt lat="45.21214" lon="5.98159">
        <ele>1799.24</ele>
        <time>2013-02-21T16:16:46Z</time>
      </trkpt>
      <trkpt lat="45.21215" lon="5.98159">
        <ele>1795.88</ele>
        <time>2013-02-21T16:16:48Z</time>
      </trkpt>
      <trkpt lat="45.21215" lon="5.98159">
        <ele>1794.44</ele>
        <time>2013-02-21T16:16:50Z</time>
      </trkpt>
      <trkpt lat="45.21215" lon="5.98159">
        <ele>1794.44</ele>
        <time>2013-02-21T16:16:57Z</time>
      </trkpt>
      <trkpt lat="45.21215" lon="5.98172">
        <ele>1792.52</ele>
        <time>2013-02-21T16:17:01Z</time>
      </trkpt>
      <trkpt lat="45.21225" lon="5.98177">
        <ele>1788.67</ele>
        <time>2013-02-21T16:17:04Z</time>
      </trkpt>
      <trkpt lat="45.21224" lon="5.98181">
        <ele>1786.27</ele>
        <time>2013-02-21T16:17:05Z</time>
      </trkpt>
      <trkpt lat="45.21224" lon="5.98187">
        <ele>1782.42</ele>
        <time>2013-02-21T16:17:07Z</time>
      </trkpt>
      <trkpt lat="45.21231" lon="5.98183">
        <ele>1779.06</ele>
        <time>2013-02-21T16:17:10Z</time>
      </trkpt>
      <trkpt lat="45.21236" lon="5.98187">
        <ele>1775.21</ele>
        <time>2013-02-21T16:17:14Z</time>
      </trkpt>
      <trkpt lat="45.21241" lon="5.98184">
        <ele>1770.41</ele>
        <time>2013-02-21T16:17:17Z</time>
      </trkpt>
      <trkpt lat="45.21249" lon="5.9819">
        <ele>1766.08</ele>
        <time>2013-02-21T16:17:20Z</time>
      </trkpt>
      <trkpt lat="45.21256" lon="5.98202">
        <ele>1758.87</ele>
        <time>2013-02-21T16:17:23Z</time>
      </trkpt>
      <trkpt lat="45.21259" lon="5.98208">
        <ele>1758.87</ele>
        <time>2013-02-21T16:17:24Z</time>
      </trkpt>
      <trkpt lat="45.21259" lon="5.98215">
        <ele>1755.5</ele>
        <time>2013-02-21T16:17:25Z</time>
      </trkpt>
      <trkpt lat="45.21261" lon="5.98228">
        <ele>1747.33</ele>
        <time>2013-02-21T16:17:28Z</time>
      </trkpt>
      <trkpt lat="45.21262" lon="5.98235">
        <ele>1744.45</ele>
        <time>2013-02-21T16:17:31Z</time>
      </trkpt>
      <trkpt lat="45.21261" lon="5.98242">
        <ele>1742.05</ele>
        <time>2013-02-21T16:17:44Z</time>
      </trkpt>
      <trkpt lat="45.21268" lon="5.98253">
        <ele>1738.2</ele>
        <time>2013-02-21T16:17:48Z</time>
      </trkpt>
      <trkpt lat="45.21273" lon="5.98267">
        <ele>1731.95</ele>
        <time>2013-02-21T16:17:51Z</time>
      </trkpt>
      <trkpt lat="45.21276" lon="5.9827">
        <ele>1728.11</ele>
        <time>2013-02-21T16:17:52Z</time>
      </trkpt>
      <trkpt lat="45.2128" lon="5.98272">
        <ele>1724.74</ele>
        <time>2013-02-21T16:17:53Z</time>
      </trkpt>
      <trkpt lat="45.21285" lon="5.98275">
        <ele>1720.9</ele>
        <time>2013-02-21T16:17:54Z</time>
      </trkpt>
      <trkpt lat="45.2129" lon="5.98277">
        <ele>1717.53</ele>
        <time>2013-02-21T16:17:55Z</time>
      </trkpt>
      <trkpt lat="45.21294" lon="5.98282">
        <ele>1714.17</ele>
        <time>2013-02-21T16:17:56Z</time>
      </trkpt>
      <trkpt lat="45.21297" lon="5.98288">
        <ele>1710.32</ele>
        <time>2013-02-21T16:17:57Z</time>
      </trkpt>
      <trkpt lat="45.21297" lon="5.98295">
        <ele>1706.96</ele>
        <time>2013-02-21T16:17:58Z</time>
      </trkpt>
      <trkpt lat="45.21297" lon="5.98301">
        <ele>1706.96</ele>
        <time>2013-02-21T16:17:59Z</time>
      </trkpt>
      <trkpt lat="45.21295" lon="5.98307">
        <ele>1704.07</ele>
        <time>2013-02-21T16:18:00Z</time>
      </trkpt>
      <trkpt lat="45.21297" lon="5.98314">
        <ele>1699.75</ele>
        <time>2013-02-21T16:18:02Z</time>
      </trkpt>
      <trkpt lat="45.21308" lon="5.98304">
        <ele>1694.46</ele>
        <time>2013-02-21T16:18:06Z</time>
      </trkpt>
      <trkpt lat="45.21314" lon="5.98297">
        <ele>1693.02</ele>
        <time>2013-02-21T16:18:08Z</time>
      </trkpt>
      <trkpt lat="45.21324" lon="5.98287">
        <ele>1689.65</ele>
        <time>2013-02-21T16:18:11Z</time>
      </trkpt>
      <trkpt lat="45.21323" lon="5.98298">
        <ele>1685.33</ele>
        <time>2013-02-21T16:18:15Z</time>
      </trkpt>
      <trkpt lat="45.21311" lon="5.98339">
        <ele>1681.48</ele>
        <time>2013-02-21T16:18:24Z</time>
      </trkpt>
      <trkpt lat="45.21308" lon="5.98358">
        <ele>1677.64</ele>
        <time>2013-02-21T16:18:27Z</time>
      </trkpt>
      <trkpt lat="45.21306" lon="5.98366">
        <ele>1675.23</ele>
        <time>2013-02-21T16:18:29Z</time>
      </trkpt>
      <trkpt lat="45.21307" lon="5.98373">
        <ele>1674.27</ele>
        <time>2013-02-21T16:18:31Z</time>
      </trkpt>
      <trkpt lat="45.21318" lon="5.98361">
        <ele>1668.99</ele>
        <time>2013-02-21T16:18:35Z</time>
      </trkpt>
      <trkpt lat="45.21322" lon="5.98377">
        <ele>1663.22</ele>
        <time>2013-02-21T16:18:39Z</time>
      </trkpt>
      <trkpt lat="45.2132" lon="5.98385">
        <ele>1661.78</ele>
        <time>2013-02-21T16:18:41Z</time>
      </trkpt>
      <trkpt lat="45.21319" lon="5.98402">
        <ele>1658.89</ele>
        <time>2013-02-21T16:18:45Z</time>
      </trkpt>
      <trkpt lat="45.21319" lon="5.98424">
        <ele>1655.05</ele>
        <time>2013-02-21T16:18:49Z</time>
      </trkpt>
      <trkpt lat="45.2132" lon="5.98439">
        <ele>1652.64</ele>
        <time>2013-02-21T16:18:52Z</time>
      </trkpt>
      <trkpt lat="45.21321" lon="5.98443">
        <ele>1649.76</ele>
        <time>2013-02-21T16:18:59Z</time>
      </trkpt>
      <trkpt lat="45.21321" lon="5.98469">
        <ele>1647.36</ele>
        <time>2013-02-21T16:19:06Z</time>
      </trkpt>
      <trkpt lat="45.21325" lon="5.98482">
        <ele>1643.03</ele>
        <time>2013-02-21T16:19:09Z</time>
      </trkpt>
      <trkpt lat="45.21326" lon="5.98488">
        <ele>1643.03</ele>
        <time>2013-02-21T16:19:10Z</time>
      </trkpt>
      <trkpt lat="45.21328" lon="5.98491">
        <ele>1641.11</ele>
        <time>2013-02-21T16:19:11Z</time>
      </trkpt>
      <trkpt lat="45.21333" lon="5.98502">
        <ele>1635.34</ele>
        <time>2013-02-21T16:19:13Z</time>
      </trkpt>
      <trkpt lat="45.21341" lon="5.98517">
        <ele>1628.13</ele>
        <time>2013-02-21T16:19:16Z</time>
      </trkpt>
      <trkpt lat="45.21343" lon="5.98528">
        <ele>1623.8</ele>
        <time>2013-02-21T16:19:18Z</time>
      </trkpt>
      <trkpt lat="45.21345" lon="5.98531">
        <ele>1623.8</ele>
        <time>2013-02-21T16:19:19Z</time>
      </trkpt>
      <trkpt lat="45.2135" lon="5.98534">
        <ele>1619.48</ele>
        <time>2013-02-21T16:19:21Z</time>
      </trkpt>
      <trkpt lat="45.21355" lon="5.98537">
        <ele>1614.67</ele>
        <time>2013-02-21T16:19:23Z</time>
      </trkpt>
      <trkpt lat="45.21361" lon="5.98542">
        <ele>1608.9</ele>
        <time>2013-02-21T16:19:25Z</time>
      </trkpt>
      <trkpt lat="45.21369" lon="5.98544">
        <ele>1602.66</ele>
        <time>2013-02-21T16:19:27Z</time>
      </trkpt>
      <trkpt lat="45.21373" lon="5.98545">
        <ele>1599.29</ele>
        <time>2013-02-21T16:19:28Z</time>
      </trkpt>
      <trkpt lat="45.21377" lon="5.98546">
        <ele>1599.29</ele>
        <time>2013-02-21T16:19:29Z</time>
      </trkpt>
      <trkpt lat="45.21388" lon="5.98543">
        <ele>1590.64</ele>
        <time>2013-02-21T16:19:32Z</time>
      </trkpt>
      <trkpt lat="45.21391" lon="5.98541">
        <ele>1586.31</ele>
        <time>2013-02-21T16:19:34Z</time>
      </trkpt>
      <trkpt lat="45.21393" lon="5.98539">
        <ele>1583.91</ele>
        <time>2013-02-21T16:19:46Z</time>
      </trkpt>
      <trkpt lat="45.21397" lon="5.98564">
        <ele>1580.06</ele>
        <time>2013-02-21T16:19:52Z</time>
      </trkpt>
      <trkpt lat="45.21398" lon="5.98569">
        <ele>1578.14</ele>
        <time>2013-02-21T16:19:53Z</time>
      </trkpt>
      <trkpt lat="45.21404" lon="5.98573">
        <ele>1572.85</ele>
        <time>2013-02-21T16:19:56Z</time>
      </trkpt>
      <trkpt lat="45.21404" lon="5.98576">
        <ele>1572.85</ele>
        <time>2013-02-21T16:19:57Z</time>
      </trkpt>
      <trkpt lat="45.21405" lon="5.98584">
        <ele>1569.49</ele>
        <time>2013-02-21T16:20:00Z</time>
      </trkpt>
      <trkpt lat="45.21405" lon="5.98584">
        <ele>1568.53</ele>
        <time>2013-02-21T16:20:01Z</time>
      </trkpt>
      <trkpt lat="45.21414" lon="5.98577">
        <ele>1565.64</ele>
        <time>2013-02-21T16:20:05Z</time>
      </trkpt>
      <trkpt lat="45.21417" lon="5.98575">
        <ele>1563.72</ele>
        <time>2013-02-21T16:20:06Z</time>
      </trkpt>
      <trkpt lat="45.21422" lon="5.98577">
        <ele>1561.8</ele>
        <time>2013-02-21T16:20:08Z</time>
      </trkpt>
      <trkpt lat="45.21427" lon="5.98583">
        <ele>1557.95</ele>
        <time>2013-02-21T16:20:10Z</time>
      </trkpt>
      <trkpt lat="45.21428" lon="5.98586">
        <ele>1555.55</ele>
        <time>2013-02-21T16:20:11Z</time>
      </trkpt>
      <trkpt lat="45.2143" lon="5.98586">
        <ele>1551.71</ele>
        <time>2013-02-21T16:20:14Z</time>
      </trkpt>
      <trkpt lat="45.2143" lon="5.98586">
        <ele>1551.71</ele>
        <time>2013-02-21T16:20:15Z</time>
      </trkpt>
      <trkpt lat="45.21431" lon="5.98588">
        <ele>1549.78</ele>
        <time>2013-02-21T16:20:35Z</time>
      </trkpt>
      <trkpt lat="45.21433" lon="5.98587">
        <ele>1548.82</ele>
        <time>2013-02-21T16:20:37Z</time>
      </trkpt>
      <trkpt lat="45.21436" lon="5.98587">
        <ele>1547.38</ele>
        <time>2013-02-21T16:20:40Z</time>
      </trkpt>
      <trkpt lat="45.21442" lon="5.98581">
        <ele>1544.01</ele>
        <time>2013-02-21T16:20:46Z</time>
      </trkpt>
      <trkpt lat="45.21445" lon="5.98578">
        <ele>1542.57</ele>
        <time>2013-02-21T16:20:50Z</time>
      </trkpt>
      <trkpt lat="45.21446" lon="5.98577">
        <ele>1542.09</ele>
        <time>2013-02-21T16:20:54Z</time>
      </trkpt>
      <trkpt lat="45.21457" lon="5.98581">
        <ele>1539.69</ele>
        <time>2013-02-21T16:20:59Z</time>
      </trkpt>
      <trkpt lat="45.21465" lon="5.98578">
        <ele>1537.77</ele>
        <time>2013-02-21T16:21:01Z</time>
      </trkpt>
      <trkpt lat="45.2147" lon="5.98573">
        <ele>1533.44</ele>
        <time>2013-02-21T16:21:03Z</time>
      </trkpt>
      <trkpt lat="45.21474" lon="5.98571">
        <ele>1531.52</ele>
        <time>2013-02-21T16:21:04Z</time>
      </trkpt>
      <trkpt lat="45.2148" lon="5.98582">
        <ele>1527.67</ele>
        <time>2013-02-21T16:21:08Z</time>
      </trkpt>
      <trkpt lat="45.21486" lon="5.98591">
        <ele>1523.35</ele>
        <time>2013-02-21T16:21:11Z</time>
      </trkpt>
      <trkpt lat="45.21493" lon="5.98596">
        <ele>1520.46</ele>
        <time>2013-02-21T16:21:14Z</time>
      </trkpt>
      <trkpt lat="45.21491" lon="5.98609">
        <ele>1516.62</ele>
        <time>2013-02-21T16:21:17Z</time>
      </trkpt>
      <trkpt lat="45.21495" lon="5.98614">
        <ele>1515.66</ele>
        <time>2013-02-21T16:21:19Z</time>
      </trkpt>
      <trkpt lat="45.21496" lon="5.98625">
        <ele>1511.81</ele>
        <time>2013-02-21T16:21:22Z</time>
      </trkpt>
      <trkpt lat="45.21499" lon="5.98632">
        <ele>1509.41</ele>
        <time>2013-02-21T16:21:25Z</time>
      </trkpt>
      <trkpt lat="45.21503" lon="5.98639">
        <ele>1506.52</ele>
        <time>2013-02-21T16:21:28Z</time>
      </trkpt>
      <trkpt lat="45.21507" lon="5.98647">
        <ele>1502.2</ele>
        <time>2013-02-21T16:21:30Z</time>
      </trkpt>
      <trkpt lat="45.21508" lon="5.98651">
        <ele>1500.27</ele>
        <time>2013-02-21T16:21:31Z</time>
      </trkpt>
      <trkpt lat="45.21515" lon="5.98662">
        <ele>1496.43</ele>
        <time>2013-02-21T16:21:34Z</time>
      </trkpt>
      <trkpt lat="45.21516" lon="5.98667">
        <ele>1493.06</ele>
        <time>2013-02-21T16:21:36Z</time>
      </trkpt>
      <trkpt lat="45.21518" lon="5.98669">
        <ele>1491.62</ele>
        <time>2013-02-21T16:21:37Z</time>
      </trkpt>
      <trkpt lat="45.21521" lon="5.98677">
        <ele>1489.22</ele>
        <time>2013-02-21T16:21:39Z</time>
      </trkpt>
      <trkpt lat="45.21524" lon="5.98696">
        <ele>1483.45</ele>
        <time>2013-02-21T16:21:43Z</time>
      </trkpt>
      <trkpt lat="45.21527" lon="5.98699">
        <ele>1482.01</ele>
        <time>2013-02-21T16:21:44Z</time>
      </trkpt>
      <trkpt lat="45.21536" lon="5.98707">
        <ele>1478.65</ele>
        <time>2013-02-21T16:21:48Z</time>
      </trkpt>
      <trkpt lat="45.21545" lon="5.98715">
        <ele>1474.32</ele>
        <time>2013-02-21T16:21:51Z</time>
      </trkpt>
      <trkpt lat="45.21548" lon="5.98718">
        <ele>1473.36</ele>
        <time>2013-02-21T16:21:52Z</time>
      </trkpt>
      <trkpt lat="45.21554" lon="5.98717">
        <ele>1470.95</ele>
        <time>2013-02-21T16:21:54Z</time>
      </trkpt>
      <trkpt lat="45.21557" lon="5.98723">
        <ele>1469.99</ele>
        <time>2013-02-21T16:21:56Z</time>
      </trkpt>
      <trkpt lat="45.21555" lon="5.98732">
        <ele>1467.59</ele>
        <time>2013-02-21T16:21:58Z</time>
      </trkpt>
      <trkpt lat="45.21565" lon="5.98741">
        <ele>1464.71</ele>
        <time>2013-02-21T16:22:02Z</time>
      </trkpt>
      <trkpt lat="45.21565" lon="5.98754">
        <ele>1462.3</ele>
        <time>2013-02-21T16:22:04Z</time>
      </trkpt>
      <trkpt lat="45.21569" lon="5.98772">
        <ele>1457.5</ele>
        <time>2013-02-21T16:22:07Z</time>
      </trkpt>
      <trkpt lat="45.21576" lon="5.98783">
        <ele>1454.13</ele>
        <time>2013-02-21T16:22:09Z</time>
      </trkpt>
      <trkpt lat="45.21579" lon="5.98794">
        <ele>1451.25</ele>
        <time>2013-02-21T16:22:11Z</time>
      </trkpt>
      <trkpt lat="45.21582" lon="5.98798">
        <ele>1451.25</ele>
        <time>2013-02-21T16:22:12Z</time>
      </trkpt>
      <trkpt lat="45.21591" lon="5.98807">
        <ele>1447.88</ele>
        <time>2013-02-21T16:22:14Z</time>
      </trkpt>
      <trkpt lat="45.21596" lon="5.98819">
        <ele>1444.52</ele>
        <time>2013-02-21T16:22:16Z</time>
      </trkpt>
      <trkpt lat="45.21599" lon="5.98828">
        <ele>1441.15</ele>
        <time>2013-02-21T16:22:18Z</time>
      </trkpt>
      <trkpt lat="45.21602" lon="5.98841">
        <ele>1437.79</ele>
        <time>2013-02-21T16:22:21Z</time>
      </trkpt>
      <trkpt lat="45.21604" lon="5.98851">
        <ele>1436.83</ele>
        <time>2013-02-21T16:22:23Z</time>
      </trkpt>
      <trkpt lat="45.21609" lon="5.98869">
        <ele>1433.94</ele>
        <time>2013-02-21T16:22:26Z</time>
      </trkpt>
      <trkpt lat="45.21611" lon="5.98882">
        <ele>1431.54</ele>
        <time>2013-02-21T16:22:28Z</time>
      </trkpt>
      <trkpt lat="45.21627" lon="5.98897">
        <ele>1428.18</ele>
        <time>2013-02-21T16:22:32Z</time>
      </trkpt>
      <trkpt lat="45.21628" lon="5.98904">
        <ele>1426.73</ele>
        <time>2013-02-21T16:22:33Z</time>
      </trkpt>
      <trkpt lat="45.21632" lon="5.98918">
        <ele>1425.29</ele>
        <time>2013-02-21T16:22:35Z</time>
      </trkpt>
      <trkpt lat="45.21652" lon="5.98934">
        <ele>1420.49</ele>
        <time>2013-02-21T16:22:39Z</time>
      </trkpt>
      <trkpt lat="45.21656" lon="5.98934">
        <ele>1416.64</ele>
        <time>2013-02-21T16:22:42Z</time>
      </trkpt>
      <trkpt lat="45.21657" lon="5.98934">
        <ele>1416.64</ele>
        <time>2013-02-21T16:22:44Z</time>
      </trkpt>
      <trkpt lat="45.21663" lon="5.98937">
        <ele>1415.68</ele>
        <time>2013-02-21T16:22:47Z</time>
      </trkpt>
      <trkpt lat="45.21675" lon="5.98952">
        <ele>1414.24</ele>
        <time>2013-02-21T16:22:50Z</time>
      </trkpt>
      <trkpt lat="45.21685" lon="5.98971">
        <ele>1409.91</ele>
        <time>2013-02-21T16:22:54Z</time>
      </trkpt>
      <trkpt lat="45.21687" lon="5.98974">
        <ele>1409.91</ele>
        <time>2013-02-21T16:22:55Z</time>
      </trkpt>
      <trkpt lat="45.21691" lon="5.98982">
        <ele>1408.95</ele>
        <time>2013-02-21T16:22:57Z</time>
      </trkpt>
      <trkpt lat="45.21709" lon="5.99002">
        <ele>1405.58</ele>
        <time>2013-02-21T16:23:02Z</time>
      </trkpt>
      <trkpt lat="45.21724" lon="5.99028">
        <ele>1400.78</ele>
        <time>2013-02-21T16:23:06Z</time>
      </trkpt>
      <trkpt lat="45.21728" lon="5.9903">
        <ele>1400.78</ele>
        <time>2013-02-21T16:23:07Z</time>
      </trkpt>
      <trkpt lat="45.21737" lon="5.99037">
        <ele>1398.86</ele>
        <time>2013-02-21T16:23:09Z</time>
      </trkpt>
      <trkpt lat="45.21753" lon="5.99065">
        <ele>1394.53</ele>
        <time>2013-02-21T16:23:14Z</time>
      </trkpt>
      <trkpt lat="45.21752" lon="5.99076">
        <ele>1392.61</ele>
        <time>2013-02-21T16:23:16Z</time>
      </trkpt>
      <trkpt lat="45.21749" lon="5.99078">
        <ele>1390.2</ele>
        <time>2013-02-21T16:23:25Z</time>
      </trkpt>
      <trkpt lat="45.21753" lon="5.99087">
        <ele>1391.65</ele>
        <time>2013-02-21T16:24:02Z</time>
      </trkpt>
      <trkpt lat="45.21754" lon="5.9909">
        <ele>1391.65</ele>
        <time>2013-02-21T16:24:22Z</time>
      </trkpt>
      <trkpt lat="45.21756" lon="5.99095">
        <ele>1392.61</ele>
        <time>2013-02-21T16:24:28Z</time>
      </trkpt>
      <trkpt lat="45.2176" lon="5.99111">
        <ele>1391.65</ele>
        <time>2013-02-21T16:24:37Z</time>
      </trkpt>
      <trkpt lat="45.21763" lon="5.99118">
        <ele>1390.2</ele>
        <time>2013-02-21T16:24:45Z</time>
      </trkpt>
      <trkpt lat="45.21763" lon="5.99119">
        <ele>1390.2</ele>
        <time>2013-02-21T16:24:49Z</time>
      </trkpt>
      <trkpt lat="45.21763" lon="5.99124">
        <ele>1390.2</ele>
        <time>2013-02-21T16:24:58Z</time>
      </trkpt>
      <trkpt lat="45.21764" lon="5.99125">
        <ele>1390.2</ele>
        <time>2013-02-21T16:25:01Z</time>
      </trkpt>
      <trkpt lat="45.21776" lon="5.99139">
        <ele>1391.17</ele>
        <time>2013-02-21T16:25:09Z</time>
      </trkpt>
      <trkpt lat="45.21786" lon="5.99147">
        <ele>1390.68</ele>
        <time>2013-02-21T16:25:13Z</time>
      </trkpt>
      <trkpt lat="45.21803" lon="5.99168">
        <ele>1389.24</ele>
        <time>2013-02-21T16:25:18Z</time>
      </trkpt>
      <trkpt lat="45.21824" lon="5.99226">
        <ele>1384.92</ele>
        <time>2013-02-21T16:25:26Z</time>
      </trkpt>
      <trkpt lat="45.21834" lon="5.99246">
        <ele>1383.47</ele>
        <time>2013-02-21T16:25:29Z</time>
      </trkpt>
      <trkpt lat="45.21843" lon="5.99267">
        <ele>1382.51</ele>
        <time>2013-02-21T16:25:32Z</time>
      </trkpt>
      <trkpt lat="45.21856" lon="5.99306">
        <ele>1381.07</ele>
        <time>2013-02-21T16:25:42Z</time>
      </trkpt>
      <trkpt lat="45.2186" lon="5.99324">
        <ele>1381.55</ele>
        <time>2013-02-21T16:25:50Z</time>
      </trkpt>
      <trkpt lat="45.21866" lon="5.99367">
        <ele>1380.11</ele>
        <time>2013-02-21T16:25:58Z</time>
      </trkpt>
      <trkpt lat="45.21887" lon="5.99401">
        <ele>1377.23</ele>
        <time>2013-02-21T16:26:03Z</time>
      </trkpt>
      <trkpt lat="45.21894" lon="5.99433">
        <ele>1374.34</ele>
        <time>2013-02-21T16:26:06Z</time>
      </trkpt>
      <trkpt lat="45.21911" lon="5.99468">
        <ele>1369.54</ele>
        <time>2013-02-21T16:26:10Z</time>
      </trkpt>
      <trkpt lat="45.21916" lon="5.99474">
        <ele>1369.54</ele>
        <time>2013-02-21T16:26:11Z</time>
      </trkpt>
      <trkpt lat="45.21924" lon="5.99482">
        <ele>1368.57</ele>
        <time>2013-02-21T16:26:13Z</time>
      </trkpt>
      <trkpt lat="45.21942" lon="5.995">
        <ele>1368.09</ele>
        <time>2013-02-21T16:26:21Z</time>
      </trkpt>
      <trkpt lat="45.21949" lon="5.99513">
        <ele>1368.57</ele>
        <time>2013-02-21T16:26:27Z</time>
      </trkpt>
      <trkpt lat="45.21956" lon="5.99523">
        <ele>1369.05</ele>
        <time>2013-02-21T16:26:35Z</time>
      </trkpt>
      <trkpt lat="45.21964" lon="5.99534">
        <ele>1369.54</ele>
        <time>2013-02-21T16:26:42Z</time>
      </trkpt>
      <trkpt lat="45.21983" lon="5.99551">
        <ele>1370.02</ele>
        <time>2013-02-21T16:26:54Z</time>
      </trkpt>
      <trkpt lat="45.21997" lon="5.99558">
        <ele>1369.05</ele>
        <time>2013-02-21T16:26:58Z</time>
      </trkpt>
      <trkpt lat="45.22036" lon="5.99572">
        <ele>1364.73</ele>
        <time>2013-02-21T16:27:04Z</time>
      </trkpt>
      <trkpt lat="45.22045" lon="5.99573">
        <ele>1364.73</ele>
        <time>2013-02-21T16:27:05Z</time>
      </trkpt>
      <trkpt lat="45.22071" lon="5.99581">
        <ele>1361.36</ele>
        <time>2013-02-21T16:27:08Z</time>
      </trkpt>
      <trkpt lat="45.22094" lon="5.99606">
        <ele>1356.56</ele>
        <time>2013-02-21T16:27:12Z</time>
      </trkpt>
      <trkpt lat="45.22096" lon="5.99613">
        <ele>1355.6</ele>
        <time>2013-02-21T16:27:13Z</time>
      </trkpt>
      <trkpt lat="45.22104" lon="5.99637">
        <ele>1354.63</ele>
        <time>2013-02-21T16:27:17Z</time>
      </trkpt>
      <trkpt lat="45.22117" lon="5.99643">
        <ele>1353.67</ele>
        <time>2013-02-21T16:27:20Z</time>
      </trkpt>
      <trkpt lat="45.22132" lon="5.99647">
        <ele>1349.83</ele>
        <time>2013-02-21T16:27:24Z</time>
      </trkpt>
      <trkpt lat="45.22142" lon="5.99652">
        <ele>1347.43</ele>
        <time>2013-02-21T16:27:27Z</time>
      </trkpt>
      <trkpt lat="45.22152" lon="5.99651">
        <ele>1343.58</ele>
        <time>2013-02-21T16:27:30Z</time>
      </trkpt>
      <trkpt lat="45.22162" lon="5.99645">
        <ele>1339.25</ele>
        <time>2013-02-21T16:27:33Z</time>
      </trkpt>
      <trkpt lat="45.2217" lon="5.99636">
        <ele>1334.93</ele>
        <time>2013-02-21T16:27:36Z</time>
      </trkpt>
      <trkpt lat="45.22177" lon="5.99631">
        <ele>1333.01</ele>
        <time>2013-02-21T16:27:38Z</time>
      </trkpt>
      <trkpt lat="45.22183" lon="5.99627">
        <ele>1331.56</ele>
        <time>2013-02-21T16:27:39Z</time>
      </trkpt>
      <trkpt lat="45.22199" lon="5.99626">
        <ele>1326.28</ele>
        <time>2013-02-21T16:27:42Z</time>
      </trkpt>
      <trkpt lat="45.22204" lon="5.99627">
        <ele>1324.35</ele>
        <time>2013-02-21T16:27:43Z</time>
      </trkpt>
      <trkpt lat="45.22211" lon="5.99635">
        <ele>1318.59</ele>
        <time>2013-02-21T16:27:46Z</time>
      </trkpt>
      <trkpt lat="45.22223" lon="5.99638">
        <ele>1315.7</ele>
        <time>2013-02-21T16:27:49Z</time>
      </trkpt>
      <trkpt lat="45.22232" lon="5.9964">
        <ele>1313.3</ele>
        <time>2013-02-21T16:27:51Z</time>
      </trkpt>
      <trkpt lat="45.22256" lon="5.99652">
        <ele>1308.01</ele>
        <time>2013-02-21T16:27:55Z</time>
      </trkpt>
      <trkpt lat="45.2226" lon="5.99656">
        <ele>1306.09</ele>
        <time>2013-02-21T16:27:57Z</time>
      </trkpt>
      <trkpt lat="45.22257" lon="5.9965">
        <ele>1305.13</ele>
        <time>2013-02-21T16:27:59Z</time>
      </trkpt>
      <trkpt lat="45.22255" lon="5.99642">
        <ele>1305.13</ele>
        <time>2013-02-21T16:28:01Z</time>
      </trkpt>
      <trkpt lat="45.22264" lon="5.99623">
        <ele>1302.24</ele>
        <time>2013-02-21T16:28:05Z</time>
      </trkpt>
      <trkpt lat="45.22273" lon="5.99597">
        <ele>1295.99</ele>
        <time>2013-02-21T16:28:10Z</time>
      </trkpt>
      <trkpt lat="45.22278" lon="5.99587">
        <ele>1294.55</ele>
        <time>2013-02-21T16:28:12Z</time>
      </trkpt>
      <trkpt lat="45.22282" lon="5.9958">
        <ele>1291.67</ele>
        <time>2013-02-21T16:28:14Z</time>
      </trkpt>
      <trkpt lat="45.22289" lon="5.99574">
        <ele>1288.78</ele>
        <time>2013-02-21T16:28:16Z</time>
      </trkpt>
      <trkpt lat="45.22309" lon="5.99577">
        <ele>1283.02</ele>
        <time>2013-02-21T16:28:20Z</time>
      </trkpt>
      <trkpt lat="45.22324" lon="5.99584">
        <ele>1280.61</ele>
        <time>2013-02-21T16:28:23Z</time>
      </trkpt>
      <trkpt lat="45.22327" lon="5.99588">
        <ele>1279.65</ele>
        <time>2013-02-21T16:28:24Z</time>
      </trkpt>
      <trkpt lat="45.22349" lon="5.99607">
        <ele>1275.33</ele>
        <time>2013-02-21T16:28:28Z</time>
      </trkpt>
      <trkpt lat="45.22374" lon="5.99634">
        <ele>1271.96</ele>
        <time>2013-02-21T16:28:33Z</time>
      </trkpt>
      <trkpt lat="45.22399" lon="5.9966">
        <ele>1270.52</ele>
        <time>2013-02-21T16:28:42Z</time>
      </trkpt>
      <trkpt lat="45.22402" lon="5.99661">
        <ele>1270.04</ele>
        <time>2013-02-21T16:28:43Z</time>
      </trkpt>
      <trkpt lat="45.22425" lon="5.99655">
        <ele>1268.6</ele>
        <time>2013-02-21T16:28:48Z</time>
      </trkpt>
      <trkpt lat="45.22443" lon="5.99626">
        <ele>1267.64</ele>
        <time>2013-02-21T16:28:57Z</time>
      </trkpt>
      <trkpt lat="45.22458" lon="5.99603">
        <ele>1267.64</ele>
        <time>2013-02-21T16:29:05Z</time>
      </trkpt>
      <trkpt lat="45.22461" lon="5.99598">
        <ele>1268.12</ele>
        <time>2013-02-21T16:29:15Z</time>
      </trkpt>
      <trkpt lat="45.22471" lon="5.99579">
        <ele>1268.6</ele>
        <time>2013-02-21T16:29:22Z</time>
      </trkpt>
      <trkpt lat="45.22482" lon="5.99561">
        <ele>1268.12</ele>
        <time>2013-02-21T16:29:32Z</time>
      </trkpt>
      <trkpt lat="45.22488" lon="5.99553">
        <ele>1268.12</ele>
        <time>2013-02-21T16:29:50Z</time>
      </trkpt>
      <trkpt lat="45.22488" lon="5.99551">
        <ele>1268.12</ele>
        <time>2013-02-21T16:29:51Z</time>
      </trkpt>
      <trkpt lat="45.22496" lon="5.99522">
        <ele>1269.56</ele>
        <time>2013-02-21T16:30:10Z</time>
      </trkpt>
      <trkpt lat="45.22503" lon="5.99496">
        <ele>1270.04</ele>
        <time>2013-02-21T16:30:27Z</time>
      </trkpt>
      <trkpt lat="45.2251" lon="5.99473">
        <ele>1270.52</ele>
        <time>2013-02-21T16:30:45Z</time>
      </trkpt>
      <trkpt lat="45.22509" lon="5.99447">
        <ele>1271.48</ele>
        <time>2013-02-21T16:31:02Z</time>
      </trkpt>
      <trkpt lat="45.22505" lon="5.9943">
        <ele>1271.96</ele>
        <time>2013-02-21T16:31:13Z</time>
      </trkpt>
      <trkpt lat="45.22508" lon="5.99419">
        <ele>1271.96</ele>
        <time>2013-02-21T16:31:31Z</time>
      </trkpt>
      <trkpt lat="45.22509" lon="5.99418">
        <ele>1271.96</ele>
        <time>2013-02-21T16:31:38Z</time>
      </trkpt>
      <trkpt lat="45.22528" lon="5.99394">
        <ele>1271.96</ele>
        <time>2013-02-21T16:31:49Z</time>
      </trkpt>
      <trkpt lat="45.22546" lon="5.99379">
        <ele>1271.48</ele>
        <time>2013-02-21T16:31:56Z</time>
      </trkpt>
      <trkpt lat="45.22549" lon="5.99378">
        <ele>1271.48</ele>
        <time>2013-02-21T16:31:57Z</time>
      </trkpt>
      <trkpt lat="45.2258" lon="5.99382">
        <ele>1270.52</ele>
        <time>2013-02-21T16:32:07Z</time>
      </trkpt>
      <trkpt lat="45.22605" lon="5.99387">
        <ele>1271</ele>
        <time>2013-02-21T16:32:16Z</time>
      </trkpt>
      <trkpt lat="45.22625" lon="5.99396">
        <ele>1271.96</ele>
        <time>2013-02-21T16:32:26Z</time>
      </trkpt>
      <trkpt lat="45.22627" lon="5.99396">
        <ele>1271.96</ele>
        <time>2013-02-21T16:32:28Z</time>
      </trkpt>
      <trkpt lat="45.22632" lon="5.99396">
        <ele>1272.92</ele>
        <time>2013-02-21T16:32:34Z</time>
      </trkpt>
      <trkpt lat="45.22651" lon="5.99403">
        <ele>1272.92</ele>
        <time>2013-02-21T16:32:43Z</time>
      </trkpt>
      <trkpt lat="45.22673" lon="5.99405">
        <ele>1273.4</ele>
        <time>2013-02-21T16:32:54Z</time>
      </trkpt>
      <trkpt lat="45.22677" lon="5.99403">
        <ele>1273.88</ele>
        <time>2013-02-21T16:32:59Z</time>
      </trkpt>
      <trkpt lat="45.22697" lon="5.99394">
        <ele>1274.36</ele>
        <time>2013-02-21T16:33:07Z</time>
      </trkpt>
      <trkpt lat="45.22704" lon="5.99388">
        <ele>1274.36</ele>
        <time>2013-02-21T16:33:09Z</time>
      </trkpt>
      <trkpt lat="45.22746" lon="5.99351">
        <ele>1270.04</ele>
        <time>2013-02-21T16:33:18Z</time>
      </trkpt>
      <trkpt lat="45.22751" lon="5.99344">
        <ele>1270.04</ele>
        <time>2013-02-21T16:33:19Z</time>
      </trkpt>
      <trkpt lat="45.22778" lon="5.99312">
        <ele>1266.67</ele>
        <time>2013-02-21T16:33:24Z</time>
      </trkpt>
      <trkpt lat="45.22811" lon="5.99285">
        <ele>1263.31</ele>
        <time>2013-02-21T16:33:29Z</time>
      </trkpt>
      <trkpt lat="45.22818" lon="5.9928">
        <ele>1263.31</ele>
        <time>2013-02-21T16:33:30Z</time>
      </trkpt>
      <trkpt lat="45.2284" lon="5.99265">
        <ele>1259.94</ele>
        <time>2013-02-21T16:33:33Z</time>
      </trkpt>
      <trkpt lat="45.22866" lon="5.99236">
        <ele>1256.58</ele>
        <time>2013-02-21T16:33:37Z</time>
      </trkpt>
      <trkpt lat="45.22885" lon="5.9921">
        <ele>1254.66</ele>
        <time>2013-02-21T16:33:40Z</time>
      </trkpt>
      <trkpt lat="45.22904" lon="5.99183">
        <ele>1251.77</ele>
        <time>2013-02-21T16:33:43Z</time>
      </trkpt>
      <trkpt lat="45.22934" lon="5.99164">
        <ele>1247.93</ele>
        <time>2013-02-21T16:33:47Z</time>
      </trkpt>
      <trkpt lat="45.22952" lon="5.99165">
        <ele>1245.53</ele>
        <time>2013-02-21T16:33:49Z</time>
      </trkpt>
      <trkpt lat="45.22979" lon="5.99162">
        <ele>1243.6</ele>
        <time>2013-02-21T16:33:52Z</time>
      </trkpt>
      <trkpt lat="45.23004" lon="5.9915">
        <ele>1240.24</ele>
        <time>2013-02-21T16:33:55Z</time>
      </trkpt>
      <trkpt lat="45.23038" lon="5.99135">
        <ele>1235.91</ele>
        <time>2013-02-21T16:33:59Z</time>
      </trkpt>
      <trkpt lat="45.23065" lon="5.99125">
        <ele>1233.51</ele>
        <time>2013-02-21T16:34:02Z</time>
      </trkpt>
      <trkpt lat="45.23091" lon="5.99115">
        <ele>1230.14</ele>
        <time>2013-02-21T16:34:05Z</time>
      </trkpt>
      <trkpt lat="45.23117" lon="5.99101">
        <ele>1226.78</ele>
        <time>2013-02-21T16:34:08Z</time>
      </trkpt>
      <trkpt lat="45.23141" lon="5.99065">
        <ele>1223.42</ele>
        <time>2013-02-21T16:34:12Z</time>
      </trkpt>
      <trkpt lat="45.23159" lon="5.99007">
        <ele>1218.13</ele>
        <time>2013-02-21T16:34:17Z</time>
      </trkpt>
      <trkpt lat="45.2318" lon="5.98966">
        <ele>1213.8</ele>
        <time>2013-02-21T16:34:21Z</time>
      </trkpt>
      <trkpt lat="45.23189" lon="5.98946">
        <ele>1212.36</ele>
        <time>2013-02-21T16:34:23Z</time>
      </trkpt>
      <trkpt lat="45.23193" lon="5.98935">
        <ele>1211.4</ele>
        <time>2013-02-21T16:34:24Z</time>
      </trkpt>
      <trkpt lat="45.23209" lon="5.98908">
        <ele>1208.03</ele>
        <time>2013-02-21T16:34:27Z</time>
      </trkpt>
      <trkpt lat="45.23238" lon="5.98886">
        <ele>1203.23</ele>
        <time>2013-02-21T16:34:31Z</time>
      </trkpt>
      <trkpt lat="45.23261" lon="5.98877">
        <ele>1201.79</ele>
        <time>2013-02-21T16:34:34Z</time>
      </trkpt>
      <trkpt lat="45.23291" lon="5.98867">
        <ele>1198.42</ele>
        <time>2013-02-21T16:34:38Z</time>
      </trkpt>
      <trkpt lat="45.23317" lon="5.98847">
        <ele>1194.09</ele>
        <time>2013-02-21T16:34:42Z</time>
      </trkpt>
      <trkpt lat="45.23329" lon="5.98836">
        <ele>1193.13</ele>
        <time>2013-02-21T16:34:44Z</time>
      </trkpt>
      <trkpt lat="45.23356" lon="5.98815">
        <ele>1189.29</ele>
        <time>2013-02-21T16:34:48Z</time>
      </trkpt>
      <trkpt lat="45.23378" lon="5.98799">
        <ele>1185.92</ele>
        <time>2013-02-21T16:34:51Z</time>
      </trkpt>
      <trkpt lat="45.23407" lon="5.98775">
        <ele>1183.04</ele>
        <time>2013-02-21T16:34:55Z</time>
      </trkpt>
      <trkpt lat="45.23421" lon="5.98761">
        <ele>1181.6</ele>
        <time>2013-02-21T16:34:57Z</time>
      </trkpt>
      <trkpt lat="45.2345" lon="5.98716">
        <ele>1176.79</ele>
        <time>2013-02-21T16:35:02Z</time>
      </trkpt>
      <trkpt lat="45.23467" lon="5.98688">
        <ele>1173.43</ele>
        <time>2013-02-21T16:35:05Z</time>
      </trkpt>
      <trkpt lat="45.23488" lon="5.98653">
        <ele>1170.06</ele>
        <time>2013-02-21T16:35:09Z</time>
      </trkpt>
      <trkpt lat="45.2351" lon="5.98617">
        <ele>1166.22</ele>
        <time>2013-02-21T16:35:13Z</time>
      </trkpt>
      <trkpt lat="45.23526" lon="5.98591">
        <ele>1162.85</ele>
        <time>2013-02-21T16:35:16Z</time>
      </trkpt>
      <trkpt lat="45.23531" lon="5.98583">
        <ele>1162.85</ele>
        <time>2013-02-21T16:35:17Z</time>
      </trkpt>
      <trkpt lat="45.23548" lon="5.98558">
        <ele>1159.49</ele>
        <time>2013-02-21T16:35:20Z</time>
      </trkpt>
      <trkpt lat="45.23567" lon="5.98538">
        <ele>1156.12</ele>
        <time>2013-02-21T16:35:23Z</time>
      </trkpt>
      <trkpt lat="45.23587" lon="5.98522">
        <ele>1152.76</ele>
        <time>2013-02-21T16:35:26Z</time>
      </trkpt>
      <trkpt lat="45.23601" lon="5.98514">
        <ele>1151.8</ele>
        <time>2013-02-21T16:35:28Z</time>
      </trkpt>
      <trkpt lat="45.23622" lon="5.98501">
        <ele>1148.91</ele>
        <time>2013-02-21T16:35:31Z</time>
      </trkpt>
      <trkpt lat="45.23637" lon="5.98491">
        <ele>1146.99</ele>
        <time>2013-02-21T16:35:33Z</time>
      </trkpt>
      <trkpt lat="45.23683" lon="5.98493">
        <ele>1143.14</ele>
        <time>2013-02-21T16:35:39Z</time>
      </trkpt>
      <trkpt lat="45.23721" lon="5.98483">
        <ele>1138.82</ele>
        <time>2013-02-21T16:35:44Z</time>
      </trkpt>
      <trkpt lat="45.23748" lon="5.98462">
        <ele>1134.97</ele>
        <time>2013-02-21T16:35:48Z</time>
      </trkpt>
      <trkpt lat="45.23756" lon="5.98457">
        <ele>1135.45</ele>
        <time>2013-02-21T16:35:49Z</time>
      </trkpt>
      <trkpt lat="45.23786" lon="5.98436">
        <ele>1131.61</ele>
        <time>2013-02-21T16:35:53Z</time>
      </trkpt>
      <trkpt lat="45.2382" lon="5.98434">
        <ele>1127.28</ele>
        <time>2013-02-21T16:35:57Z</time>
      </trkpt>
      <trkpt lat="45.2387" lon="5.98441">
        <ele>1122.96</ele>
        <time>2013-02-21T16:36:03Z</time>
      </trkpt>
      <trkpt lat="45.23902" lon="5.98423">
        <ele>1118.63</ele>
        <time>2013-02-21T16:36:07Z</time>
      </trkpt>
      <trkpt lat="45.23913" lon="5.9839">
        <ele>1114.79</ele>
        <time>2013-02-21T16:36:10Z</time>
      </trkpt>
      <trkpt lat="45.23945" lon="5.98346">
        <ele>1111.9</ele>
        <time>2013-02-21T16:36:16Z</time>
      </trkpt>
      <trkpt lat="45.23962" lon="5.98327">
        <ele>1109.02</ele>
        <time>2013-02-21T16:36:19Z</time>
      </trkpt>
      <trkpt lat="45.23979" lon="5.98313">
        <ele>1106.61</ele>
        <time>2013-02-21T16:36:22Z</time>
      </trkpt>
      <trkpt lat="45.24014" lon="5.98307">
        <ele>1102.77</ele>
        <time>2013-02-21T16:36:27Z</time>
      </trkpt>
      <trkpt lat="45.24021" lon="5.98307">
        <ele>1102.29</ele>
        <time>2013-02-21T16:36:28Z</time>
      </trkpt>
      <trkpt lat="45.24051" lon="5.983">
        <ele>1098.92</ele>
        <time>2013-02-21T16:36:32Z</time>
      </trkpt>
      <trkpt lat="45.2408" lon="5.98262">
        <ele>1095.56</ele>
        <time>2013-02-21T16:36:37Z</time>
      </trkpt>
      <trkpt lat="45.24084" lon="5.98239">
        <ele>1093.64</ele>
        <time>2013-02-21T16:36:39Z</time>
      </trkpt>
      <trkpt lat="45.24091" lon="5.98185">
        <ele>1090.27</ele>
        <time>2013-02-21T16:36:44Z</time>
      </trkpt>
      <trkpt lat="45.24093" lon="5.98175">
        <ele>1089.31</ele>
        <time>2013-02-21T16:36:45Z</time>
      </trkpt>
      <trkpt lat="45.24107" lon="5.98139">
        <ele>1084.99</ele>
        <time>2013-02-21T16:36:49Z</time>
      </trkpt>
      <trkpt lat="45.24125" lon="5.9812">
        <ele>1082.58</ele>
        <time>2013-02-21T16:36:52Z</time>
      </trkpt>
      <trkpt lat="45.24159" lon="5.98098">
        <ele>1079.7</ele>
        <time>2013-02-21T16:36:57Z</time>
      </trkpt>
      <trkpt lat="45.24181" lon="5.98071">
        <ele>1076.33</ele>
        <time>2013-02-21T16:37:01Z</time>
      </trkpt>
      <trkpt lat="45.24204" lon="5.98047">
        <ele>1072.97</ele>
        <time>2013-02-21T16:37:05Z</time>
      </trkpt>
      <trkpt lat="45.24233" lon="5.98027">
        <ele>1070.08</ele>
        <time>2013-02-21T16:37:10Z</time>
      </trkpt>
      <trkpt lat="45.24264" lon="5.98013">
        <ele>1065.76</ele>
        <time>2013-02-21T16:37:15Z</time>
      </trkpt>
      <trkpt lat="45.2427" lon="5.98009">
        <ele>1065.76</ele>
        <time>2013-02-21T16:37:16Z</time>
      </trkpt>
      <trkpt lat="45.24278" lon="5.98008">
        <ele>1063.84</ele>
        <time>2013-02-21T16:37:19Z</time>
      </trkpt>
      <trkpt lat="45.24311" lon="5.97992">
        <ele>1060.95</ele>
        <time>2013-02-21T16:37:28Z</time>
      </trkpt>
      <trkpt lat="45.24314" lon="5.97989">
        <ele>1059.51</ele>
        <time>2013-02-21T16:37:31Z</time>
      </trkpt>
      <trkpt lat="45.24315" lon="5.97991">
        <ele>1058.55</ele>
        <time>2013-02-21T16:37:33Z</time>
      </trkpt>
      <trkpt lat="45.24316" lon="5.97991">
        <ele>1057.59</ele>
        <time>2013-02-21T16:38:00Z</time>
      </trkpt>
      <trkpt lat="45.24316" lon="5.97992">
        <ele>1059.51</ele>
        <time>2013-02-21T16:38:53Z</time>
      </trkpt>
      <trkpt lat="45.24317" lon="5.97991">
        <ele>1059.51</ele>
        <time>2013-02-21T16:39:40Z</time>
      </trkpt>
      <trkpt lat="45.24317" lon="5.97989">
        <ele>1060.47</ele>
        <time>2013-02-21T16:40:24Z</time>
      </trkpt>
      <trkpt lat="45.24317" lon="5.97989">
        <ele>1059.99</ele>
        <time>2013-02-21T16:40:28Z</time>
      </trkpt>
    </trkseg>
  </trk>
</gpx>